Observation data for Rotan on 08/13/2019      Previous  Date       Current Mesonet Observations  Soil Data  Daily Summary Page  Observations in Plain Language
KRO1 130500Z 14008KT 31/15 A2987 RMK A01 T03080150  RH  038%=      5-min Rain = 0
KRO1 130501Z 14008KT 31/15 A2987 RMK A01 T03080150  RH  038%=      5-min Rain = 0
KRO1 130502Z 14008KT 31/15 A2987 RMK A01 T03080150  RH  038%=      5-min Rain = 0
KRO1 130503Z 14008KT 31/15 A2987 RMK A01 T03080150  RH  038%=      5-min Rain = 0
KRO1 130504Z 14008KT 31/15 A2987 RMK A01 T03080150  RH  038%=      5-min Rain = 0
KRO1 130505Z 14008KT 31/15 A2987 RMK A01 T03080150  RH  038%=      5-min Rain = 0
KRO1 130506Z 14008KT 31/15 A2987 RMK A01 T03080150  RH  038%=      5-min Rain = 0
KRO1 130507Z 14008KT 31/15 A2987 RMK A01 T03080150  RH  038%=      5-min Rain = 0
KRO1 130508Z 14008KT 31/15 A2987 RMK A01 T03080150  RH  038%=      5-min Rain = 0
KRO1 130509Z 14009KT 31/15 A2987 RMK A01 T03080149  RH  038%=      5-min Rain = 0
KRO1 130510Z 15008KT 31/15 A2987 RMK A01 T03080149  RH  038%=      5-min Rain = 0
KRO1 130511Z 14008KT 31/15 A2987 RMK A01 T03090149  RH  038%=      5-min Rain = 0
KRO1 130512Z 15007KT 31/15 A2987 RMK A01 T03090149  RH  038%=      5-min Rain = 0
KRO1 130513Z 15010KT 31/15 A2987 RMK A01 T03080148  RH  038%=      5-min Rain = 0
KRO1 130514Z 15009KT 31/15 A2987 RMK A01 T03090148  RH  038%=      5-min Rain = 0
KRO1 130515Z 15009KT 31/15 A2987 RMK A01 T03100148  RH  037%=      5-min Rain = 0
KRO1 130516Z 15011KT 31/15 A2987 RMK A01 T03110147  RH  037%=      5-min Rain = 0
KRO1 130517Z 15011KT 31/15 A2987 RMK A01 T03120146  RH  037%=      5-min Rain = 0
KRO1 130518Z 15013KT 31/15 A2987 RMK A01 T03140146  RH  036%=      5-min Rain = 0
KRO1 130519Z 15012KT 32/15 A2987 RMK A01 T03160145  RH  036%=      5-min Rain = 0
KRO1 130520Z 15011KT 32/15 A2987 RMK A01 T03170145  RH  035%=      5-min Rain = 0
KRO1 130521Z 15011KT 32/15 A2987 RMK A01 T03170145  RH  035%=      5-min Rain = 0
KRO1 130522Z 15013KT 32/15 A2987 RMK A01 T03180145  RH  035%=      5-min Rain = 0
KRO1 130523Z 15012KT 32/15 A2987 RMK A01 T03190145  RH  035%=      5-min Rain = 0
KRO1 130524Z 15011KT 32/15 A2987 RMK A01 T03190145  RH  035%=      5-min Rain = 0
KRO1 130525Z 15012KT 32/15 A2987 RMK A01 T03200145  RH  035%=      5-min Rain = 0
KRO1 130526Z 15011KT 32/15 A2987 RMK A01 T03200145  RH  035%=      5-min Rain = 0
KRO1 130527Z 15011KT 32/14 A2987 RMK A01 T03190144  RH  035%=      5-min Rain = 0
KRO1 130528Z 15010KT 32/15 A2987 RMK A01 T03190145  RH  035%=      5-min Rain = 0
KRO1 130529Z 15011KT 32/15 A2987 RMK A01 T03190145  RH  035%=      5-min Rain = 0
KRO1 130530Z 15011KT 32/14 A2987 RMK A01 T03180144  RH  035%=      5-min Rain = 0
KRO1 130531Z 15010KT 32/14 A2987 RMK A01 T03180144  RH  035%=      5-min Rain = 0
KRO1 130532Z 15010KT 32/14 A2987 RMK A01 T03180144  RH  035%=      5-min Rain = 0
KRO1 130533Z 16010KT 32/15 A2987 RMK A01 T03180145  RH  035%=      5-min Rain = 0
KRO1 130534Z 16010KT 32/14 A2987 RMK A01 T03180144  RH  035%=      5-min Rain = 0
KRO1 130535Z 15010KT 32/14 A2987 RMK A01 T03170144  RH  035%=      5-min Rain = 0
KRO1 130536Z 15010KT 32/14 A2987 RMK A01 T03170144  RH  035%=      5-min Rain = 0
KRO1 130537Z 16012KT 32/14 A2987 RMK A01 T03170144  RH  035%=      5-min Rain = 0
KRO1 130538Z 15010KT 32/14 A2987 RMK A01 T03180144  RH  035%=      5-min Rain = 0
KRO1 130539Z 16011KT 32/14 A2987 RMK A01 T03180144  RH  035%=      5-min Rain = 0
KRO1 130540Z 15012KT 32/14 A2987 RMK A01 T03190144  RH  035%=      5-min Rain = 0
KRO1 130541Z 15011KT 32/14 A2987 RMK A01 T03190144  RH  035%=      5-min Rain = 0
KRO1 130542Z 16011KT 32/14 A2987 RMK A01 T03190144  RH  035%=      5-min Rain = 0
KRO1 130543Z 16011KT 32/14 A2987 RMK A01 T03190144  RH  035%=      5-min Rain = 0
KRO1 130544Z 16012KT 32/15 A2987 RMK A01 T03190145  RH  035%=      5-min Rain = 0
KRO1 130545Z 16011KT 32/15 A2987 RMK A01 T03190145  RH  035%=      5-min Rain = 0
KRO1 130546Z 16012KT 32/15 A2987 RMK A01 T03200145  RH  035%=      5-min Rain = 0
KRO1 130547Z 15013KT 32/15 A2987 RMK A01 T03200146  RH  035%=      5-min Rain = 0
KRO1 130548Z 16012KT 32/15 A2987 RMK A01 T03210145  RH  035%=      5-min Rain = 0
KRO1 130549Z 16013KT 32/15 A2987 RMK A01 T03210146  RH  035%=      5-min Rain = 0
KRO1 130550Z 16013KT 32/15 A2987 RMK A01 T03210146  RH  035%=      5-min Rain = 0
KRO1 130551Z 16014KT 32/15 A2987 RMK A01 T03220147  RH  035%=      5-min Rain = 0
KRO1 130552Z 16015KT 32/15 A2987 RMK A01 T03220147  RH  035%=      5-min Rain = 0
KRO1 130553Z 16014KT 32/15 A2987 RMK A01 T03230147  RH  034%=      5-min Rain = 0
KRO1 130554Z 16015KT 32/15 A2987 RMK A01 T03230147  RH  034%=      5-min Rain = 0
KRO1 130555Z 16013KT 32/15 A2987 RMK A01 T03230147  RH  034%=      5-min Rain = 0
KRO1 130556Z 16014KT 32/15 A2987 RMK A01 T03240147  RH  035%=      5-min Rain = 0
KRO1 130557Z 16011KT 32/15 A2987 RMK A01 T03230148  RH  035%=      5-min Rain = 0
KRO1 130558Z 16013KT 32/15 A2987 RMK A01 T03230148  RH  035%=      5-min Rain = 0
KRO1 130559Z 16013KT 32/15 A2987 RMK A01 T03220148  RH  035%=      5-min Rain = 0
KRO1 130600Z 16012KT 32/15 A2987 RMK A01 T03220148  RH  035%=      5-min Rain = 0
KRO1 130601Z 16013KT 32/15 A2987 RMK A01 T03210148  RH  035%=      5-min Rain = 0
KRO1 130602Z 16013KT 32/15 A2987 RMK A01 T03220149  RH  035%=      5-min Rain = 0
KRO1 130603Z 16012KT 32/15 A2987 RMK A01 T03220148  RH  035%=      5-min Rain = 0
KRO1 130604Z 16013KT 32/15 A2987 RMK A01 T03210148  RH  035%=      5-min Rain = 0
KRO1 130605Z 16012KT 32/15 A2987 RMK A01 T03210148  RH  035%=      5-min Rain = 0
KRO1 130606Z 16012KT 32/15 A2987 RMK A01 T03210148  RH  035%=      5-min Rain = 0
KRO1 130607Z 16011KT 32/15 A2987 RMK A01 T03210148  RH  035%=      5-min Rain = 0
KRO1 130608Z 16012KT 32/15 A2987 RMK A01 T03200148  RH  035%=      5-min Rain = 0
KRO1 130609Z 16011KT 32/15 A2987 RMK A01 T03190148  RH  036%=      5-min Rain = 0
KRO1 130610Z 16011KT 32/15 A2987 RMK A01 T03190149  RH  036%=      5-min Rain = 0
KRO1 130611Z 17011KT 32/15 A2987 RMK A01 T03180148  RH  036%=      5-min Rain = 0
KRO1 130612Z 17011KT 32/15 A2987 RMK A01 T03180149  RH  036%=      5-min Rain = 0
KRO1 130613Z 17011KT 32/15 A2987 RMK A01 T03180148  RH  036%=      5-min Rain = 0
KRO1 130614Z 17012KT 32/15 A2987 RMK A01 T03180148  RH  036%=      5-min Rain = 0
KRO1 130615Z 17012KT 32/15 A2987 RMK A01 T03180148  RH  036%=      5-min Rain = 0
KRO1 130616Z 17011KT 32/15 A2987 RMK A01 T03180148  RH  036%=      5-min Rain = 0
KRO1 130617Z 17010KT 32/15 A2987 RMK A01 T03180148  RH  036%=      5-min Rain = 0
KRO1 130618Z 17013KT 32/15 A2987 RMK A01 T03180148  RH  036%=      5-min Rain = 0
KRO1 130619Z 17011KT 32/15 A2987 RMK A01 T03180148  RH  036%=      5-min Rain = 0
KRO1 130620Z 18012KT 32/15 A2987 RMK A01 T03190148  RH  036%=      5-min Rain = 0
KRO1 130621Z 18015KT 32/15 A2987 RMK A01 T03190148  RH  036%=      5-min Rain = 0
KRO1 130622Z 18013KT 32/15 A2987 RMK A01 T03200148  RH  035%=      5-min Rain = 0
KRO1 130623Z 18013G18KT 32/15 A2987 RMK A01 T03200148  RH  035%=      5-min Rain = 0
KRO1 130624Z 18013KT 32/15 A2987 RMK A01 T03210148  RH  035%=      5-min Rain = 0
KRO1 130625Z 18013KT 32/15 A2987 RMK A01 T03210148  RH  035%=      5-min Rain = 0
KRO1 130626Z 18013KT 32/15 A2987 RMK A01 T03210148  RH  035%=      5-min Rain = 0
KRO1 130627Z 18013KT 32/15 A2987 RMK A01 T03210148  RH  035%=      5-min Rain = 0
KRO1 130628Z 18012KT 32/15 A2987 RMK A01 T03200148  RH  035%=      5-min Rain = 0
KRO1 130629Z 18012KT 32/15 A2987 RMK A01 T03200148  RH  035%=      5-min Rain = 0
KRO1 130630Z 18013KT 32/15 A2987 RMK A01 T03200148  RH  035%=      5-min Rain = 0
KRO1 130631Z 18015KT 32/15 A2987 RMK A01 T03190148  RH  035%=      5-min Rain = 0
KRO1 130632Z 18015KT 32/15 A2987 RMK A01 T03200147  RH  035%=      5-min Rain = 0
KRO1 130633Z 18014KT 32/15 A2987 RMK A01 T03210147  RH  035%=      5-min Rain = 0
KRO1 130634Z 18012KT 32/15 A2987 RMK A01 T03210147  RH  035%=      5-min Rain = 0
KRO1 130635Z 18013KT 32/15 A2987 RMK A01 T03210147  RH  035%=      5-min Rain = 0
KRO1 130636Z 18012KT 32/15 A2987 RMK A01 T03210148  RH  035%=      5-min Rain = 0
KRO1 130637Z 18015KT 32/15 A2987 RMK A01 T03200147  RH  035%=      5-min Rain = 0
KRO1 130638Z 18014KT 32/15 A2987 RMK A01 T03200147  RH  035%=      5-min Rain = 0
KRO1 130639Z 18014KT 32/15 A2987 RMK A01 T03200147  RH  035%=      5-min Rain = 0
KRO1 130640Z 18013KT 32/15 A2987 RMK A01 T03200147  RH  035%=      5-min Rain = 0
KRO1 130641Z 18013KT 32/15 A2987 RMK A01 T03200147  RH  035%=      5-min Rain = 0
KRO1 130642Z 18011KT 32/15 A2987 RMK A01 T03200147  RH  035%=      5-min Rain = 0
KRO1 130643Z 19015KT 32/15 A2987 RMK A01 T03200147  RH  035%=      5-min Rain = 0
KRO1 130644Z 18012KT 32/15 A2987 RMK A01 T03200147  RH  035%=      5-min Rain = 0
KRO1 130645Z 18012KT 32/15 A2987 RMK A01 T03200147  RH  035%=      5-min Rain = 0
KRO1 130646Z 19013KT 32/15 A2987 RMK A01 T03190147  RH  035%=      5-min Rain = 0
KRO1 130647Z 18014KT 32/15 A2987 RMK A01 T03190147  RH  035%=      5-min Rain = 0
KRO1 130648Z 18013KT 32/15 A2987 RMK A01 T03190147  RH  035%=      5-min Rain = 0
KRO1 130649Z 18013KT 32/15 A2987 RMK A01 T03200147  RH  035%=      5-min Rain = 0
KRO1 130650Z 18013KT 32/15 A2987 RMK A01 T03200147  RH  035%=      5-min Rain = 0
KRO1 130651Z 18012KT 32/15 A2987 RMK A01 T03200147  RH  035%=      5-min Rain = 0
KRO1 130652Z 18013KT 32/15 A2987 RMK A01 T03200147  RH  035%=      5-min Rain = 0
KRO1 130653Z 18013KT 32/15 A2987 RMK A01 T03200147  RH  035%=      5-min Rain = 0
KRO1 130654Z 18014KT 32/15 A2987 RMK A01 T03200147  RH  035%=      5-min Rain = 0
KRO1 130655Z 18012G17KT 32/15 A2987 RMK A01 T03200147  RH  035%=      5-min Rain = 0
KRO1 130656Z 18011KT 32/15 A2987 RMK A01 T03200147  RH  035%=      5-min Rain = 0
KRO1 130657Z 18015KT 32/15 A2987 RMK A01 T03190147  RH  035%=      5-min Rain = 0
KRO1 130658Z 18015KT 32/15 A2987 RMK A01 T03200146  RH  035%=      5-min Rain = 0
KRO1 130659Z 18015KT 32/15 A2987 RMK A01 T03210147  RH  035%=      5-min Rain = 0
KRO1 130700Z 18012KT 32/15 A2987 RMK A01 T03210147  RH  035%=      5-min Rain = 0
KRO1 130701Z 18014KT 32/15 A2987 RMK A01 T03200147  RH  035%=      5-min Rain = 0
KRO1 130702Z 17013KT 32/15 A2987 RMK A01 T03200147  RH  035%=      5-min Rain = 0
KRO1 130703Z 18013KT 32/15 A2987 RMK A01 T03190147  RH  035%=      5-min Rain = 0
KRO1 130704Z 18013KT 32/15 A2987 RMK A01 T03190147  RH  035%=      5-min Rain = 0
KRO1 130705Z 18011KT 32/15 A2987 RMK A01 T03190147  RH  035%=      5-min Rain = 0
KRO1 130706Z 18013KT 32/15 A2987 RMK A01 T03190147  RH  035%=      5-min Rain = 0
KRO1 130707Z 17012KT 32/15 A2987 RMK A01 T03180147  RH  035%=      5-min Rain = 0
KRO1 130708Z 18012KT 32/15 A2987 RMK A01 T03180147  RH  035%=      5-min Rain = 0
KRO1 130709Z 17010KT 32/15 A2987 RMK A01 T03180147  RH  036%=      5-min Rain = 0
KRO1 130710Z 18013KT 32/15 A2987 RMK A01 T03170147  RH  036%=      5-min Rain = 0
KRO1 130711Z 18012KT 32/15 A2987 RMK A01 T03170147  RH  036%=      5-min Rain = 0
KRO1 130712Z 18011KT 32/15 A2987 RMK A01 T03170147  RH  036%=      5-min Rain = 0
KRO1 130713Z 18012KT 32/15 A2987 RMK A01 T03170147  RH  036%=      5-min Rain = 0
KRO1 130714Z 18011KT 32/15 A2987 RMK A01 T03170147  RH  036%=      5-min Rain = 0
KRO1 130715Z 18012KT 32/15 A2987 RMK A01 T03170148  RH  036%=      5-min Rain = 0
KRO1 130716Z 19011KT 32/15 A2987 RMK A01 T03160148  RH  036%=      5-min Rain = 0
KRO1 130717Z 18012KT 32/15 A2987 RMK A01 T03160148  RH  036%=      5-min Rain = 0
KRO1 130718Z 19012KT 32/15 A2987 RMK A01 T03160148  RH  036%=      5-min Rain = 0
KRO1 130719Z 18012KT 32/15 A2987 RMK A01 T03150148  RH  036%=      5-min Rain = 0
KRO1 130720Z 19012KT 32/15 A2987 RMK A01 T03150148  RH  036%=      5-min Rain = 0
KRO1 130721Z 19010KT 32/15 A2987 RMK A01 T03150148  RH  036%=      5-min Rain = 0
KRO1 130722Z 19011KT 32/15 A2987 RMK A01 T03150148  RH  036%=      5-min Rain = 0
KRO1 130723Z 19013KT 31/15 A2987 RMK A01 T03140148  RH  037%=      5-min Rain = 0
KRO1 130724Z 19013KT 31/15 A2987 RMK A01 T03140148  RH  037%=      5-min Rain = 0
KRO1 130725Z 19014KT 32/15 A2987 RMK A01 T03150149  RH  037%=      5-min Rain = 0
KRO1 130726Z 19013KT 32/15 A2987 RMK A01 T03150149  RH  037%=      5-min Rain = 0
KRO1 130727Z 19013KT 32/15 A2987 RMK A01 T03150149  RH  037%=      5-min Rain = 0
KRO1 130728Z 19015KT 32/15 A2987 RMK A01 T03150150  RH  037%=      5-min Rain = 0
KRO1 130729Z 19012KT 32/15 A2987 RMK A01 T03150149  RH  037%=      5-min Rain = 0
KRO1 130730Z 19012KT 32/15 A2987 RMK A01 T03150150  RH  037%=      5-min Rain = 0
KRO1 130731Z 19012KT 32/15 A2987 RMK A01 T03150150  RH  037%=      5-min Rain = 0
KRO1 130732Z 19011KT 31/15 A2987 RMK A01 T03140150  RH  037%=      5-min Rain = 0
KRO1 130733Z 19013G19KT 31/15 A2987 RMK A01 T03140150  RH  037%=      5-min Rain = 0
KRO1 130734Z 19014G19KT 31/15 A2987 RMK A01 T03140151  RH  037%=      5-min Rain = 0
KRO1 130735Z 19012KT 31/15 A2987 RMK A01 T03140151  RH  037%=      5-min Rain = 0
KRO1 130736Z 19013KT 31/15 A2987 RMK A01 T03140151  RH  037%=      5-min Rain = 0
KRO1 130737Z 19014KT 31/15 A2987 RMK A01 T03140151  RH  037%=      5-min Rain = 0
KRO1 130738Z 19014KT 31/15 A2987 RMK A01 T03140151  RH  037%=      5-min Rain = 0
KRO1 130739Z 19012KT 31/15 A2987 RMK A01 T03140151  RH  037%=      5-min Rain = 0
KRO1 130740Z 19011KT 31/15 A2987 RMK A01 T03140151  RH  037%=      5-min Rain = 0
KRO1 130741Z 19011KT 31/15 A2987 RMK A01 T03130151  RH  038%=      5-min Rain = 0
KRO1 130742Z 19014KT 31/15 A2987 RMK A01 T03120152  RH  038%=      5-min Rain = 0
KRO1 130743Z 19014KT 31/15 A2987 RMK A01 T03120151  RH  038%=      5-min Rain = 0
KRO1 130744Z 19013KT 31/15 A2987 RMK A01 T03130152  RH  038%=      5-min Rain = 0
KRO1 130745Z 19012KT 31/15 A2987 RMK A01 T03130152  RH  038%=      5-min Rain = 0
KRO1 130746Z 19012KT 31/15 A2987 RMK A01 T03120152  RH  038%=      5-min Rain = 0
KRO1 130747Z 19013KT 31/15 A2987 RMK A01 T03110152  RH  038%=      5-min Rain = 0
KRO1 130748Z 19011KT 31/15 A2987 RMK A01 T03120153  RH  038%=      5-min Rain = 0
KRO1 130749Z 19013KT 31/15 A2987 RMK A01 T03110153  RH  038%=      5-min Rain = 0
KRO1 130750Z 19014KT 31/15 A2987 RMK A01 T03110152  RH  038%=      5-min Rain = 0
KRO1 130751Z 19012KT 31/15 A2987 RMK A01 T03110152  RH  038%=      5-min Rain = 0
KRO1 130752Z 19011KT 31/15 A2987 RMK A01 T03110152  RH  038%=      5-min Rain = 0
KRO1 130753Z 19011KT 31/15 A2987 RMK A01 T03110153  RH  038%=      5-min Rain = 0
KRO1 130754Z 18011KT 31/15 A2987 RMK A01 T03100153  RH  039%=      5-min Rain = 0
KRO1 130755Z 19012KT 31/15 A2987 RMK A01 T03100153  RH  039%=      5-min Rain = 0
KRO1 130756Z 19013KT 31/15 A2987 RMK A01 T03100153  RH  039%=      5-min Rain = 0
KRO1 130757Z 19011KT 31/15 A2987 RMK A01 T03100153  RH  039%=      5-min Rain = 0
KRO1 130758Z 19011KT 31/15 A2987 RMK A01 T03100154  RH  039%=      5-min Rain = 0
KRO1 130759Z 19012KT 31/15 A2987 RMK A01 T03100154  RH  039%=      5-min Rain = 0
KRO1 130800Z 19012KT 31/15 A2987 RMK A01 T03100154  RH  039%=      5-min Rain = 0
KRO1 130801Z 19013KT 31/15 A2987 RMK A01 T03100154  RH  039%=      5-min Rain = 0
KRO1 130802Z 19013KT 31/15 A2987 RMK A01 T03100154  RH  039%=      5-min Rain = 0
KRO1 130803Z 19013KT 31/15 A2987 RMK A01 T03110154  RH  039%=      5-min Rain = 0
KRO1 130804Z 19013KT 31/15 A2987 RMK A01 T03110154  RH  039%=      5-min Rain = 0
KRO1 130805Z 19013KT 31/15 A2987 RMK A01 T03110154  RH  039%=      5-min Rain = 0
KRO1 130806Z 19012KT 31/15 A2987 RMK A01 T03120154  RH  039%=      5-min Rain = 0
KRO1 130807Z 20011KT 31/16 A2987 RMK A01 T03120155  RH  039%=      5-min Rain = 0
KRO1 130808Z 19012KT 31/16 A2987 RMK A01 T03110155  RH  039%=      5-min Rain = 0
KRO1 130809Z 20011KT 31/16 A2987 RMK A01 T03110155  RH  039%=      5-min Rain = 0
KRO1 130810Z 19013KT 31/16 A2987 RMK A01 T03110155  RH  039%=      5-min Rain = 0
KRO1 130811Z 20014KT 31/16 A2987 RMK A01 T03100155  RH  039%=      5-min Rain = 0
KRO1 130812Z 19014KT 31/16 A2987 RMK A01 T03110155  RH  039%=      5-min Rain = 0
KRO1 130813Z 19013KT 31/16 A2987 RMK A01 T03110156  RH  039%=      5-min Rain = 0
KRO1 130814Z 19016KT 31/16 A2987 RMK A01 T03110156  RH  039%=      5-min Rain = 0
KRO1 130815Z 19014KT 31/16 A2987 RMK A01 T03110156  RH  039%=      5-min Rain = 0
KRO1 130816Z 19014KT 31/16 A2987 RMK A01 T03120156  RH  039%=      5-min Rain = 0
KRO1 130817Z 19014KT 31/16 A2987 RMK A01 T03120156  RH  039%=      5-min Rain = 0
KRO1 130818Z 19015KT 31/16 A2987 RMK A01 T03120157  RH  039%=      5-min Rain = 0
KRO1 130819Z 20014KT 31/16 A2987 RMK A01 T03120157  RH  039%=      5-min Rain = 0
KRO1 130820Z 20012KT 31/16 A2987 RMK A01 T03120157  RH  039%=      5-min Rain = 0
KRO1 130821Z 20012KT 31/16 A2987 RMK A01 T03110157  RH  039%=      5-min Rain = 0
KRO1 130822Z 20015KT 31/16 A2987 RMK A01 T03110158  RH  040%=      5-min Rain = 0
KRO1 130823Z 19013KT 31/16 A2987 RMK A01 T03110158  RH  040%=      5-min Rain = 0
KRO1 130824Z 19013KT 31/16 A2987 RMK A01 T03110158  RH  040%=      5-min Rain = 0
KRO1 130825Z 19015KT 31/16 A2987 RMK A01 T03110159  RH  040%=      5-min Rain = 0
KRO1 130826Z 20015KT 31/16 A2987 RMK A01 T03110159  RH  040%=      5-min Rain = 0
KRO1 130827Z 20013KT 31/16 A2987 RMK A01 T03120159  RH  040%=      5-min Rain = 0
KRO1 130828Z 19015G20KT 31/16 A2987 RMK A01 T03120160  RH  040%=      5-min Rain = 0
KRO1 130829Z 20014G19KT 31/16 A2987 RMK A01 T03120160  RH  040%=      5-min Rain = 0
KRO1 130830Z 19016KT 31/16 A2987 RMK A01 T03110160  RH  040%=      5-min Rain = 0
KRO1 130831Z 20013KT 31/16 A2987 RMK A01 T03110160  RH  040%=      5-min Rain = 0
KRO1 130832Z 20014KT 31/16 A2987 RMK A01 T03110161  RH  040%=      5-min Rain = 0
KRO1 130833Z 20016KT 31/16 A2987 RMK A01 T03110160  RH  040%=      5-min Rain = 0
KRO1 130834Z 20015KT 31/16 A2987 RMK A01 T03110161  RH  040%=      5-min Rain = 0
KRO1 130835Z 20013KT 31/16 A2987 RMK A01 T03110161  RH  040%=      5-min Rain = 0
KRO1 130836Z 20016KT 31/16 A2987 RMK A01 T03110161  RH  040%=      5-min Rain = 0
KRO1 130837Z 20014KT 31/16 A2987 RMK A01 T03110161  RH  040%=      5-min Rain = 0
KRO1 130838Z 20014KT 31/16 A2987 RMK A01 T03100161  RH  041%=      5-min Rain = 0
KRO1 130839Z 20014KT 31/16 A2986 RMK A01 T03100161  RH  041%=      5-min Rain = 0
KRO1 130840Z 20012KT 31/16 A2986 RMK A01 T03100161  RH  041%=      5-min Rain = 0
KRO1 130841Z 20012KT 31/16 A2986 RMK A01 T03090161  RH  041%=      5-min Rain = 0
KRO1 130842Z 20014KT 31/16 A2986 RMK A01 T03090162  RH  041%=      5-min Rain = 0
KRO1 130843Z 20016KT 31/16 A2986 RMK A01 T03090162  RH  041%=      5-min Rain = 0
KRO1 130844Z 20013KT 31/16 A2986 RMK A01 T03090161  RH  041%=      5-min Rain = 0
KRO1 130845Z 20013KT 31/16 A2986 RMK A01 T03090162  RH  041%=      5-min Rain = 0
KRO1 130846Z 20014KT 31/16 A2986 RMK A01 T03090162  RH  041%=      5-min Rain = 0
KRO1 130847Z 20013KT 31/16 A2987 RMK A01 T03090162  RH  041%=      5-min Rain = 0
KRO1 130848Z 20012KT 31/16 A2987 RMK A01 T03090162  RH  041%=      5-min Rain = 0
KRO1 130849Z 20014KT 31/16 A2987 RMK A01 T03080162  RH  041%=      5-min Rain = 0
KRO1 130850Z 20013KT 31/16 A2987 RMK A01 T03080162  RH  041%=      5-min Rain = 0
KRO1 130851Z 20012KT 31/16 A2987 RMK A01 T03080162  RH  041%=      5-min Rain = 0
KRO1 130852Z 20012KT 31/16 A2987 RMK A01 T03080163  RH  042%=      5-min Rain = 0
KRO1 130853Z 20012KT 31/16 A2987 RMK A01 T03070162  RH  042%=      5-min Rain = 0
KRO1 130854Z 20011KT 31/16 A2987 RMK A01 T03070162  RH  042%=      5-min Rain = 0
KRO1 130855Z 20012KT 31/16 A2987 RMK A01 T03070163  RH  042%=      5-min Rain = 0
KRO1 130856Z 20012KT 31/16 A2987 RMK A01 T03060163  RH  042%=      5-min Rain = 0
KRO1 130857Z 20011KT 31/16 A2987 RMK A01 T03060163  RH  042%=      5-min Rain = 0
KRO1 130858Z 21011KT 31/16 A2987 RMK A01 T03060163  RH  042%=      5-min Rain = 0
KRO1 130859Z 21010KT 31/16 A2987 RMK A01 T03060163  RH  042%=      5-min Rain = 0
KRO1 130900Z 20010KT 31/16 A2987 RMK A01 T03050163  RH  042%=      5-min Rain = 0
KRO1 130901Z 20010KT 30/16 A2987 RMK A01 T03040163  RH  043%=      5-min Rain = 0
KRO1 130902Z 21012KT 30/16 A2987 RMK A01 T03040163  RH  043%=      5-min Rain = 0
KRO1 130903Z 21012KT 31/16 A2987 RMK A01 T03050164  RH  043%=      5-min Rain = 0
KRO1 130904Z 21013KT 31/16 A2987 RMK A01 T03060164  RH  042%=      5-min Rain = 0
KRO1 130905Z 21012KT 31/16 A2987 RMK A01 T03060164  RH  042%=      5-min Rain = 0
KRO1 130906Z 21013KT 31/17 A2987 RMK A01 T03070165  RH  042%=      5-min Rain = 0
KRO1 130907Z 21012KT 31/16 A2987 RMK A01 T03070164  RH  042%=      5-min Rain = 0
KRO1 130908Z 21012KT 31/17 A2987 RMK A01 T03070165  RH  042%=      5-min Rain = 0
KRO1 130909Z 20012KT 31/17 A2987 RMK A01 T03060165  RH  043%=      5-min Rain = 0
KRO1 130910Z 21013KT 31/17 A2987 RMK A01 T03060165  RH  043%=      5-min Rain = 0
KRO1 130911Z 21012KT 31/17 A2987 RMK A01 T03060165  RH  043%=      5-min Rain = 0
KRO1 130912Z 20012KT 31/17 A2987 RMK A01 T03060165  RH  043%=      5-min Rain = 0
KRO1 130913Z 21012KT 31/17 A2987 RMK A01 T03060165  RH  043%=      5-min Rain = 0
KRO1 130914Z 20012KT 31/17 A2987 RMK A01 T03060165  RH  043%=      5-min Rain = 0
KRO1 130915Z 20011KT 31/17 A2987 RMK A01 T03050165  RH  043%=      5-min Rain = 0
KRO1 130916Z 20011KT 31/17 A2987 RMK A01 T03050165  RH  043%=      5-min Rain = 0
KRO1 130917Z 20010KT 30/17 A2987 RMK A01 T03040165  RH  043%=      5-min Rain = 0
KRO1 130918Z 20011KT 30/17 A2987 RMK A01 T03030165  RH  043%=      5-min Rain = 0
KRO1 130919Z 20010KT 30/17 A2987 RMK A01 T03030165  RH  043%=      5-min Rain = 0
KRO1 130920Z 20010KT 30/17 A2987 RMK A01 T03020165  RH  044%=      5-min Rain = 0
KRO1 130921Z 20009KT 30/17 A2987 RMK A01 T03020165  RH  044%=      5-min Rain = 0
KRO1 130922Z 20009KT 30/17 A2987 RMK A01 T03010165  RH  044%=      5-min Rain = 0
KRO1 130923Z 20009KT 30/17 A2987 RMK A01 T03010165  RH  044%=      5-min Rain = 0
KRO1 130924Z 20009KT 30/17 A2987 RMK A01 T03010165  RH  044%=      5-min Rain = 0
KRO1 130925Z 20009KT 30/17 A2987 RMK A01 T03000165  RH  044%=      5-min Rain = 0
KRO1 130926Z 20008KT 30/17 A2987 RMK A01 T03000165  RH  044%=      5-min Rain = 0
KRO1 130927Z 20010KT 30/17 A2987 RMK A01 T03000165  RH  044%=      5-min Rain = 0
KRO1 130928Z 20009KT 30/17 A2987 RMK A01 T03000165  RH  044%=      5-min Rain = 0
KRO1 130929Z 20010KT 30/17 A2987 RMK A01 T03000165  RH  044%=      5-min Rain = 0
KRO1 130930Z 20009KT 30/17 A2987 RMK A01 T03000165  RH  044%=      5-min Rain = 0
KRO1 130931Z 20009KT 30/17 A2987 RMK A01 T03000165  RH  044%=      5-min Rain = 0
KRO1 130932Z 20009KT 30/17 A2987 RMK A01 T03000166  RH  044%=      5-min Rain = 0
KRO1 130933Z 20009KT 30/17 A2987 RMK A01 T02990165  RH  044%=      5-min Rain = 0
KRO1 130934Z 20009KT 30/17 A2987 RMK A01 T02990165  RH  044%=      5-min Rain = 0
KRO1 130935Z 20009KT 30/17 A2987 RMK A01 T02990166  RH  045%=      5-min Rain = 0
KRO1 130936Z 20009KT 30/17 A2988 RMK A01 T02990165  RH  045%=      5-min Rain = 0
KRO1 130937Z 20009KT 30/17 A2988 RMK A01 T02990165  RH  045%=      5-min Rain = 0
KRO1 130938Z 20009KT 30/17 A2988 RMK A01 T02990165  RH  045%=      5-min Rain = 0
KRO1 130939Z 21008KT 30/17 A2988 RMK A01 T02990165  RH  045%=      5-min Rain = 0
KRO1 130940Z 21008KT 30/17 A2988 RMK A01 T02990165  RH  045%=      5-min Rain = 0
KRO1 130941Z 21008KT 30/17 A2988 RMK A01 T02990166  RH  045%=      5-min Rain = 0
KRO1 130942Z 21008KT 30/17 A2988 RMK A01 T02990166  RH  045%=      5-min Rain = 0
KRO1 130943Z 21007KT 30/17 A2988 RMK A01 T02990166  RH  045%=      5-min Rain = 0
KRO1 130944Z 21006KT 30/17 A2988 RMK A01 T02990166  RH  045%=      5-min Rain = 0
KRO1 130945Z 21007KT 30/17 A2988 RMK A01 T02990166  RH  045%=      5-min Rain = 0
KRO1 130946Z 21006KT 30/17 A2988 RMK A01 T02990166  RH  045%=      5-min Rain = 0
KRO1 130947Z 21007KT 30/17 A2988 RMK A01 T02980166  RH  045%=      5-min Rain = 0
KRO1 130948Z 21006KT 30/17 A2988 RMK A01 T02980166  RH  045%=      5-min Rain = 0
KRO1 130949Z 21006KT 30/17 A2988 RMK A01 T02980166  RH  045%=      5-min Rain = 0
KRO1 130950Z 21005KT 30/17 A2988 RMK A01 T02980166  RH  045%=      5-min Rain = 0
KRO1 130951Z 21005KT 30/17 A2989 RMK A01 T02970166  RH  045%=      5-min Rain = 0
KRO1 130952Z 22006KT 30/17 A2989 RMK A01 T02970166  RH  045%=      5-min Rain = 0
KRO1 130953Z 21005KT 30/17 A2989 RMK A01 T02970166  RH  045%=      5-min Rain = 0
KRO1 130954Z 22006KT 30/17 A2989 RMK A01 T02980166  RH  045%=      5-min Rain = 0
KRO1 130955Z 21004KT 30/17 A2989 RMK A01 T02980166  RH  045%=      5-min Rain = 0
KRO1 130956Z 22004KT 30/17 A2989 RMK A01 T02990167  RH  045%=      5-min Rain = 0
KRO1 130957Z 22003KT 30/17 A2989 RMK A01 T02990167  RH  045%=      5-min Rain = 0
KRO1 130958Z 23003KT 30/17 A2989 RMK A01 T02980166  RH  045%=      5-min Rain = 0
KRO1 130959Z 25002KT 30/17 A2989 RMK A01 T02980166  RH  045%=      5-min Rain = 0
KRO1 131000Z 29001KT 30/17 A2989 RMK A01 T02980166  RH  045%=      5-min Rain = 0
KRO1 131001Z 35001KT 30/17 A2989 RMK A01 T02970167  RH  045%=      5-min Rain = 0
KRO1 131002Z 34002KT 30/17 A2989 RMK A01 T02960166  RH  046%=      5-min Rain = 0
KRO1 131003Z 35001KT 30/17 A299 RMK A01 T02950166  RH  046%=      5-min Rain = 0
KRO1 131004Z 01004KT 30/17 A299 RMK A01 T02950167  RH  046%=      5-min Rain = 0
KRO1 131005Z 01004KT 29/17 A299 RMK A01 T02930166  RH  046%=      5-min Rain = 0
KRO1 131006Z 00004KT 29/17 A299 RMK A01 T02910166  RH  047%=      5-min Rain = 0
KRO1 131007Z 36005KT 29/17 A299 RMK A01 T02890165  RH  047%=      5-min Rain = 0
KRO1 131008Z 36006KT 29/17 A299 RMK A01 T02870165  RH  048%=      5-min Rain = 0
KRO1 131009Z 00007KT 29/17 A299 RMK A01 T02870166  RH  048%=      5-min Rain = 0
KRO1 131010Z 00007KT 29/17 A299 RMK A01 T02870166  RH  048%=      5-min Rain = 0
KRO1 131011Z 01008KT 29/17 A299 RMK A01 T02870166  RH  048%=      5-min Rain = 0
KRO1 131012Z 01007KT 29/17 A299 RMK A01 T02880166  RH  048%=      5-min Rain = 0
KRO1 131013Z 01007KT 29/17 A299 RMK A01 T02890166  RH  047%=      5-min Rain = 0
KRO1 131014Z 01006KT 29/17 A299 RMK A01 T02890166  RH  047%=      5-min Rain = 0
KRO1 131015Z 01006KT 29/17 A299 RMK A01 T02890165  RH  047%=      5-min Rain = 0
KRO1 131016Z 01006KT 29/17 A299 RMK A01 T02880165  RH  047%=      5-min Rain = 0
KRO1 131017Z 01006KT 29/17 A299 RMK A01 T02870165  RH  048%=      5-min Rain = 0
KRO1 131018Z 00006KT 29/17 A299 RMK A01 T02860165  RH  048%=      5-min Rain = 0
KRO1 131019Z 00006KT 29/16 A299 RMK A01 T02850164  RH  048%=      5-min Rain = 0
KRO1 131020Z 36007KT 28/16 A299 RMK A01 T02840164  RH  048%=      5-min Rain = 0
KRO1 131021Z 34007KT 28/17 A299 RMK A01 T02840165  RH  048%=      5-min Rain = 0
KRO1 131022Z 34006KT 28/17 A299 RMK A01 T02840165  RH  049%=      5-min Rain = 0
KRO1 131023Z 35005KT 28/17 A2991 RMK A01 T02840165  RH  049%=      5-min Rain = 0
KRO1 131024Z 35006KT 29/17 A2991 RMK A01 T02850165  RH  048%=      5-min Rain = 0
KRO1 131025Z 35005KT 29/17 A299 RMK A01 T02850165  RH  048%=      5-min Rain = 0
KRO1 131026Z 34006KT 29/17 A299 RMK A01 T02860165  RH  048%=      5-min Rain = 0
KRO1 131027Z 34005KT 29/17 A299 RMK A01 T02870166  RH  048%=      5-min Rain = 0
KRO1 131028Z 33004KT 29/17 A299 RMK A01 T02890166  RH  047%=      5-min Rain = 0
KRO1 131029Z 30003KT 29/17 A299 RMK A01 T02900166  RH  047%=      5-min Rain = 0
KRO1 131030Z 27003KT 29/17 A2991 RMK A01 T02910166  RH  047%=      5-min Rain = 0
KRO1 131031Z 24002KT 29/17 A2991 RMK A01 T02910166  RH  047%=      5-min Rain = 0
KRO1 131032Z 25002KT 29/17 A299 RMK A01 T02910166  RH  047%=      5-min Rain = 0
KRO1 131033Z 23003KT 29/17 A299 RMK A01 T02910166  RH  047%=      5-min Rain = 0
KRO1 131034Z 24002KT 29/17 A2991 RMK A01 T02920166  RH  047%=      5-min Rain = 0
KRO1 131035Z 25003KT 29/17 A2991 RMK A01 T02920166  RH  047%=      5-min Rain = 0
KRO1 131036Z 25004KT 29/17 A2991 RMK A01 T02920166  RH  046%=      5-min Rain = 0
KRO1 131037Z 28003KT 29/17 A2991 RMK A01 T02920166  RH  047%=      5-min Rain = 0
KRO1 131038Z 33003KT 29/17 A2991 RMK A01 T02920166  RH  047%=      5-min Rain = 0
KRO1 131039Z 31004KT 29/17 A2991 RMK A01 T02920166  RH  047%=      5-min Rain = 0
KRO1 131040Z 31005KT 29/17 A2991 RMK A01 T02900166  RH  047%=      5-min Rain = 0
KRO1 131041Z 32005KT 29/17 A2991 RMK A01 T02870165  RH  048%=      5-min Rain = 0
KRO1 131042Z 31005KT 29/17 A2991 RMK A01 T02850165  RH  048%=      5-min Rain = 0
KRO1 131043Z 31005KT 28/17 A2991 RMK A01 T02840165  RH  048%=      5-min Rain = 0
KRO1 131044Z 32005KT 28/17 A2991 RMK A01 T02840165  RH  049%=      5-min Rain = 0
KRO1 131045Z 33005KT 29/17 A2991 RMK A01 T02850166  RH  048%=      5-min Rain = 0
KRO1 131046Z 34005KT 29/17 A2991 RMK A01 T02860166  RH  048%=      5-min Rain = 0
KRO1 131047Z 33006KT 29/17 A2992 RMK A01 T02860166  RH  048%=      5-min Rain = 0
KRO1 131048Z 34005KT 29/17 A2992 RMK A01 T02860166  RH  048%=      5-min Rain = 0
KRO1 131049Z 34004KT 29/17 A2992 RMK A01 T02870167  RH  048%=      5-min Rain = 0
KRO1 131050Z 35003KT 29/17 A2992 RMK A01 T02860166  RH  048%=      5-min Rain = 0
KRO1 131051Z 36003KT 29/17 A2992 RMK A01 T02860167  RH  048%=      5-min Rain = 0
KRO1 131052Z 00003KT 29/17 A2992 RMK A01 T02860166  RH  048%=      5-min Rain = 0
KRO1 131053Z 01002KT 29/17 A2992 RMK A01 T02870166  RH  048%=      5-min Rain = 0
KRO1 131054Z 03005KT 29/17 A2992 RMK A01 T02880166  RH  048%=      5-min Rain = 0
KRO1 131055Z 04008KT 29/16 A2992 RMK A01 T02880163  RH  047%=      5-min Rain = 0
KRO1 131056Z 04007KT 28/16 A2992 RMK A01 T02840161  RH  047%=      5-min Rain = 0
KRO1 131057Z 03007KT 28/16 A2992 RMK A01 T02810161  RH  048%=      5-min Rain = 0
KRO1 131058Z 03007KT 28/16 A2992 RMK A01 T02780161  RH  049%=      5-min Rain = 0
KRO1 131059Z 03010KT 28/16 A2992 RMK A01 T02760162  RH  050%=      5-min Rain = 0
KRO1 131100Z 03009KT 28/16 A2992 RMK A01 T02750163  RH  050%=      5-min Rain = 0
KRO1 131101Z 02008KT 27/16 A2992 RMK A01 T02740163  RH  051%=      5-min Rain = 0
KRO1 131102Z 02008KT 27/16 A2992 RMK A01 T02730164  RH  051%=      5-min Rain = 0
KRO1 131103Z 02007KT 27/17 A2993 RMK A01 T02720165  RH  052%=      5-min Rain = 0
KRO1 131104Z 02009KT 27/17 A2993 RMK A01 T02710165  RH  052%=      5-min Rain = 0
KRO1 131105Z 03009KT 27/17 A2993 RMK A01 T02710166  RH  053%=      5-min Rain = 0
KRO1 131106Z 02008KT 27/17 A2993 RMK A01 T02710167  RH  053%=      5-min Rain = 0
KRO1 131107Z 01009KT 27/17 A2993 RMK A01 T02700167  RH  053%=      5-min Rain = 0
KRO1 131108Z 01010KT 27/17 A2993 RMK A01 T02690167  RH  053%=      5-min Rain = 0
KRO1 131109Z 01009KT 27/17 A2993 RMK A01 T02690167  RH  054%=      5-min Rain = 0
KRO1 131110Z 01010KT 27/17 A2993 RMK A01 T02680168  RH  054%=      5-min Rain = 0
KRO1 131111Z 01008KT 27/17 A2993 RMK A01 T02670168  RH  055%=      5-min Rain = 0
KRO1 131112Z 01010KT 27/17 A2993 RMK A01 T02670169  RH  055%=      5-min Rain = 0
KRO1 131113Z 01010KT 27/17 A2993 RMK A01 T02670171  RH  056%=      5-min Rain = 0
KRO1 131114Z 01008KT 27/17 A2993 RMK A01 T02670171  RH  056%=      5-min Rain = 0
KRO1 131115Z 01010KT 27/17 A2993 RMK A01 T02660171  RH  056%=      5-min Rain = 0
KRO1 131116Z 02009KT 27/17 A2993 RMK A01 T02660172  RH  056%=      5-min Rain = 0
KRO1 131117Z 02010KT 27/17 A2993 RMK A01 T02660172  RH  057%=      5-min Rain = 0
KRO1 131118Z 02007KT 27/17 A2993 RMK A01 T02650173  RH  057%=      5-min Rain = 0
KRO1 131119Z 02009KT 27/17 A2993 RMK A01 T02650174  RH  057%=      5-min Rain = 0
KRO1 131120Z 02007KT 26/17 A2993 RMK A01 T02640174  RH  058%=      5-min Rain = 0
KRO1 131121Z 03009KT 26/18 A2993 RMK A01 T02640175  RH  058%=      5-min Rain = 0
KRO1 131122Z 03009KT 26/18 A2993 RMK A01 T02640176  RH  059%=      5-min Rain = 0
KRO1 131123Z 03009KT 26/18 A2993 RMK A01 T02630176  RH  059%=      5-min Rain = 0
KRO1 131124Z 03007KT 26/18 A2993 RMK A01 T02630177  RH  059%=      5-min Rain = 0
KRO1 131125Z 02009KT 26/18 A2993 RMK A01 T02620177  RH  059%=      5-min Rain = 0
KRO1 131126Z 02008KT 26/18 A2993 RMK A01 T02620177  RH  060%=      5-min Rain = 0
KRO1 131127Z 03010KT 26/18 A2993 RMK A01 T02610178  RH  060%=      5-min Rain = 0
KRO1 131128Z 03009KT 26/18 A2993 RMK A01 T02610178  RH  060%=      5-min Rain = 0
KRO1 131129Z 02007KT 26/18 A2993 RMK A01 T02600178  RH  061%=      5-min Rain = 0
KRO1 131130Z 02007KT 26/18 A2993 RMK A01 T02600179  RH  061%=      5-min Rain = 0
KRO1 131131Z 03009KT 26/18 A2993 RMK A01 T02590179  RH  061%=      5-min Rain = 0
KRO1 131132Z 03010KT 26/18 A2993 RMK A01 T02590180  RH  062%=      5-min Rain = 0
KRO1 131133Z 03009KT 26/18 A2993 RMK A01 T02590180  RH  062%=      5-min Rain = 0
KRO1 131134Z 03009KT 26/18 A2993 RMK A01 T02590180  RH  062%=      5-min Rain = 0
KRO1 131135Z 02008KT 26/18 A2994 RMK A01 T02580180  RH  062%=      5-min Rain = 0
KRO1 131136Z 02008KT 26/18 A2994 RMK A01 T02580180  RH  062%=      5-min Rain = 0
KRO1 131137Z 03008KT 26/18 A2994 RMK A01 T02580180  RH  062%=      5-min Rain = 0
KRO1 131138Z 03007KT 26/18 A2994 RMK A01 T02580181  RH  062%=      5-min Rain = 0
KRO1 131139Z 03007KT 26/18 A2994 RMK A01 T02570181  RH  062%=      5-min Rain = 0
KRO1 131140Z 03008KT 26/18 A2994 RMK A01 T02570180  RH  063%=      5-min Rain = 0
KRO1 131141Z 03008KT 26/18 A2994 RMK A01 T02570181  RH  063%=      5-min Rain = 0
KRO1 131142Z 03009KT 26/18 A2994 RMK A01 T02560182  RH  063%=      5-min Rain = 0
KRO1 131143Z 03009KT 26/18 A2994 RMK A01 T02560182  RH  064%=      5-min Rain = 0
KRO1 131144Z 03010KT 26/18 A2994 RMK A01 T02560183  RH  064%=      5-min Rain = 0
KRO1 131145Z 02011KT 26/19 A2994 RMK A01 T02560185  RH  065%=      5-min Rain = 0
KRO1 131146Z 01009KT 26/19 A2995 RMK A01 T02570186  RH  065%=      5-min Rain = 0
KRO1 131147Z 02008KT 26/19 A2995 RMK A01 T02570186  RH  065%=      5-min Rain = 0
KRO1 131148Z 02007KT 26/19 A2995 RMK A01 T02570186  RH  065%=      5-min Rain = 0
KRO1 131149Z 03007KT 26/19 A2995 RMK A01 T02560186  RH  065%=      5-min Rain = 0
KRO1 131150Z 03008KT 26/19 A2995 RMK A01 T02560187  RH  066%=      5-min Rain = 0
KRO1 131151Z 03007KT 26/19 A2995 RMK A01 T02550187  RH  066%=      5-min Rain = 0
KRO1 131152Z 03007KT 26/19 A2995 RMK A01 T02550187  RH  066%=      5-min Rain = 0
KRO1 131153Z 03007KT 25/19 A2995 RMK A01 T02540187  RH  066%=      5-min Rain = 0
KRO1 131154Z 03008KT 25/19 A2995 RMK A01 T02540187  RH  067%=      5-min Rain = 0
KRO1 131155Z 02008KT 25/19 A2995 RMK A01 T02540187  RH  067%=      5-min Rain = 0
KRO1 131156Z 02009KT 25/19 A2995 RMK A01 T02530187  RH  067%=      5-min Rain = 0
KRO1 131157Z 01008KT 25/19 A2995 RMK A01 T02530188  RH  067%=      5-min Rain = 0
KRO1 131158Z 02008KT 25/19 A2995 RMK A01 T02540188  RH  067%=      5-min Rain = 0
KRO1 131159Z 01008KT 25/19 A2995 RMK A01 T02540189  RH  067%=      5-min Rain = 0
KRO1 131200Z 02008KT 25/19 A2995 RMK A01 T02530189  RH  068%=      5-min Rain = 0
KRO1 131201Z 02007KT 25/19 A2995 RMK A01 T02530189  RH  068%=      5-min Rain = 0
KRO1 131202Z 02007KT 25/19 A2995 RMK A01 T02530189  RH  068%=      5-min Rain = 0
KRO1 131203Z 02006KT 25/19 A2995 RMK A01 T02520189  RH  068%=      5-min Rain = 0
KRO1 131204Z 02006KT 25/19 A2995 RMK A01 T02520189  RH  068%=      5-min Rain = 0
KRO1 131205Z 02007KT 25/19 A2995 RMK A01 T02510190  RH  069%=      5-min Rain = 0
KRO1 131206Z 02008KT 25/19 A2995 RMK A01 T02510190  RH  069%=      5-min Rain = 0
KRO1 131207Z 02006KT 25/19 A2995 RMK A01 T02510191  RH  069%=      5-min Rain = 0
KRO1 131208Z 02006KT 25/19 A2995 RMK A01 T02510190  RH  069%=      5-min Rain = 0
KRO1 131209Z 03006KT 25/19 A2995 RMK A01 T02500190  RH  069%=      5-min Rain = 0
KRO1 131210Z 03005KT 25/19 A2995 RMK A01 T02500191  RH  070%=      5-min Rain = 0
KRO1 131211Z 03004KT 25/19 A2995 RMK A01 T02500191  RH  070%=      5-min Rain = 0
KRO1 131212Z 02005KT 25/19 A2995 RMK A01 T02490191  RH  070%=      5-min Rain = 0
KRO1 131213Z 02006KT 25/19 A2995 RMK A01 T02490191  RH  070%=      5-min Rain = 0
KRO1 131214Z 02006KT 25/19 A2995 RMK A01 T02490191  RH  070%=      5-min Rain = 0
KRO1 131215Z 02006KT 25/19 A2995 RMK A01 T02490191  RH  070%=      5-min Rain = 0
KRO1 131216Z 01006KT 25/19 A2995 RMK A01 T02490191  RH  070%=      5-min Rain = 0
KRO1 131217Z 01007KT 25/19 A2995 RMK A01 T02480191  RH  071%=      5-min Rain = 0
KRO1 131218Z 01007KT 25/19 A2995 RMK A01 T02480192  RH  071%=      5-min Rain = 0
KRO1 131219Z 01006KT 25/19 A2995 RMK A01 T02480192  RH  071%=      5-min Rain = 0
KRO1 131220Z 01006KT 25/19 A2995 RMK A01 T02480192  RH  071%=      5-min Rain = 0
KRO1 131221Z 02006KT 25/19 A2995 RMK A01 T02480192  RH  071%=      5-min Rain = 0
KRO1 131222Z 02006KT 25/19 A2995 RMK A01 T02470192  RH  071%=      5-min Rain = 0
KRO1 131223Z 02006KT 25/19 A2995 RMK A01 T02480192  RH  071%=      5-min Rain = 0
KRO1 131224Z 02006KT 25/19 A2995 RMK A01 T02470192  RH  072%=      5-min Rain = 0
KRO1 131225Z 02006KT 25/19 A2995 RMK A01 T02470193  RH  072%=      5-min Rain = 0
KRO1 131226Z 02007KT 25/19 A2995 RMK A01 T02470193  RH  072%=      5-min Rain = 0
KRO1 131227Z 02007KT 25/19 A2995 RMK A01 T02470193  RH  072%=      5-min Rain = 0
KRO1 131228Z 01008KT 25/19 A2995 RMK A01 T02470193  RH  072%=      5-min Rain = 0
KRO1 131229Z 02008KT 25/19 A2995 RMK A01 T02470193  RH  072%=      5-min Rain = 0
KRO1 131230Z 01009KT 25/19 A2995 RMK A01 T02470193  RH  072%=      5-min Rain = 0
KRO1 131231Z 01008KT 25/19 A2995 RMK A01 T02480193  RH  072%=      5-min Rain = 0
KRO1 131232Z 01009KT 25/19 A2995 RMK A01 T02480193  RH  072%=      5-min Rain = 0
KRO1 131233Z 01007KT 25/19 A2995 RMK A01 T02480193  RH  072%=      5-min Rain = 0
KRO1 131234Z 01009KT 25/19 A2995 RMK A01 T02480193  RH  072%=      5-min Rain = 0
KRO1 131235Z 01008KT 25/19 A2995 RMK A01 T02470193  RH  072%=      5-min Rain = 0
KRO1 131236Z 01008KT 25/19 A2995 RMK A01 T02480194  RH  072%=      5-min Rain = 0
KRO1 131237Z 01008KT 25/19 A2995 RMK A01 T02480194  RH  072%=      5-min Rain = 0
KRO1 131238Z 02007KT 25/19 A2995 RMK A01 T02480194  RH  072%=      5-min Rain = 0
KRO1 131239Z 02008KT 25/19 A2995 RMK A01 T02480194  RH  072%=      5-min Rain = 0
KRO1 131240Z 01008KT 25/19 A2995 RMK A01 T02480194  RH  072%=      5-min Rain = 0
KRO1 131241Z 01009KT 25/19 A2995 RMK A01 T02480194  RH  072%=      5-min Rain = 0
KRO1 131242Z 02009KT 25/19 A2995 RMK A01 T02480193  RH  072%=      5-min Rain = 0
KRO1 131243Z 02009KT 25/19 A2995 RMK A01 T02480194  RH  072%=      5-min Rain = 0
KRO1 131244Z 02009KT 25/19 A2995 RMK A01 T02480194  RH  072%=      5-min Rain = 0
KRO1 131245Z 03009KT 25/19 A2995 RMK A01 T02480194  RH  072%=      5-min Rain = 0
KRO1 131246Z 03007KT 25/19 A2995 RMK A01 T02490194  RH  072%=      5-min Rain = 0
KRO1 131247Z 03008KT 25/19 A2995 RMK A01 T02490194  RH  072%=      5-min Rain = 0
KRO1 131248Z 03008KT 25/19 A2995 RMK A01 T02490194  RH  071%=      5-min Rain = 0
KRO1 131249Z 03009KT 25/19 A2995 RMK A01 T02490194  RH  071%=      5-min Rain = 0
KRO1 131250Z 03006KT 25/19 A2995 RMK A01 T02500194  RH  071%=      5-min Rain = 0
KRO1 131251Z 03008KT 25/19 A2995 RMK A01 T02500194  RH  071%=      5-min Rain = 0
KRO1 131252Z 03007KT 25/19 A2995 RMK A01 T02500194  RH  071%=      5-min Rain = 0
KRO1 131253Z 03007KT 25/19 A2995 RMK A01 T02500194  RH  071%=      5-min Rain = 0
KRO1 131254Z 03007KT 25/19 A2995 RMK A01 T02510193  RH  070%=      5-min Rain = 0
KRO1 131255Z 04010KT 25/19 A2995 RMK A01 T02510193  RH  070%=      5-min Rain = 0
KRO1 131256Z 04009KT 25/19 A2995 RMK A01 T02510192  RH  070%=      5-min Rain = 0
KRO1 131257Z 04008KT 25/19 A2996 RMK A01 T02520193  RH  070%=      5-min Rain = 0
KRO1 131258Z 04007KT 25/19 A2996 RMK A01 T02520193  RH  070%=      5-min Rain = 0
KRO1 131259Z 04009KT 25/19 A2996 RMK A01 T02520193  RH  070%=      5-min Rain = 0
KRO1 131300Z 03008KT 25/19 A2996 RMK A01 T02520192  RH  069%=      5-min Rain = 0
KRO1 131301Z 04008KT 25/19 A2996 RMK A01 T02530193  RH  069%=      5-min Rain = 0
KRO1 131302Z 04008KT 25/19 A2996 RMK A01 T02530193  RH  069%=      5-min Rain = 0
KRO1 131303Z 04008KT 25/19 A2996 RMK A01 T02540193  RH  069%=      5-min Rain = 0
KRO1 131304Z 03011KT 25/19 A2996 RMK A01 T02540192  RH  069%=      5-min Rain = 0
KRO1 131305Z 04011KT 25/19 A2996 RMK A01 T02540192  RH  068%=      5-min Rain = 0
KRO1 131306Z 04011KT 25/19 A2996 RMK A01 T02540191  RH  068%=      5-min Rain = 0
KRO1 131307Z 04011KT 25/19 A2996 RMK A01 T02540191  RH  068%=      5-min Rain = 0
KRO1 131308Z 04012KT 25/19 A2996 RMK A01 T02540190  RH  068%=      5-min Rain = 0
KRO1 131309Z 04011KT 26/19 A2996 RMK A01 T02550189  RH  067%=      5-min Rain = 0
KRO1 131310Z 04010KT 26/19 A2996 RMK A01 T02550190  RH  067%=      5-min Rain = 0
KRO1 131311Z 04009KT 26/19 A2996 RMK A01 T02550190  RH  067%=      5-min Rain = 0
KRO1 131312Z 04011KT 26/19 A2996 RMK A01 T02560190  RH  067%=      5-min Rain = 0
KRO1 131313Z 04009KT 26/19 A2996 RMK A01 T02560190  RH  067%=      5-min Rain = 0
KRO1 131314Z 04008KT 26/19 A2996 RMK A01 T02560191  RH  067%=      5-min Rain = 0
KRO1 131315Z 04010KT 26/19 A2996 RMK A01 T02570190  RH  066%=      5-min Rain = 0
KRO1 131316Z 04009KT 26/19 A2996 RMK A01 T02580190  RH  066%=      5-min Rain = 0
KRO1 131317Z 05012KT 26/19 A2996 RMK A01 T02580188  RH  065%=      5-min Rain = 0
KRO1 131318Z 05011KT 26/19 A2996 RMK A01 T02590187  RH  065%=      5-min Rain = 0
KRO1 131319Z 04010KT 26/19 A2996 RMK A01 T02590187  RH  064%=      5-min Rain = 0
KRO1 131320Z 05010KT 26/19 A2996 RMK A01 T02590187  RH  064%=      5-min Rain = 0
KRO1 131321Z 05010KT 26/19 A2996 RMK A01 T02600187  RH  064%=      5-min Rain = 0
KRO1 131322Z 05012KT 26/19 A2996 RMK A01 T02610186  RH  063%=      5-min Rain = 0
KRO1 131323Z 05012KT 26/19 A2996 RMK A01 T02610185  RH  063%=      5-min Rain = 0
KRO1 131324Z 05011KT 26/19 A2996 RMK A01 T02610186  RH  063%=      5-min Rain = 0
KRO1 131325Z 05013KT 26/19 A2996 RMK A01 T02620185  RH  063%=      5-min Rain = 0
KRO1 131326Z 05012KT 26/19 A2996 RMK A01 T02610185  RH  063%=      5-min Rain = 0
KRO1 131327Z 05012KT 26/18 A2996 RMK A01 T02620184  RH  062%=      5-min Rain = 0
KRO1 131328Z 05012KT 26/18 A2996 RMK A01 T02620184  RH  062%=      5-min Rain = 0
KRO1 131329Z 05013KT 26/18 A2996 RMK A01 T02620184  RH  062%=      5-min Rain = 0
KRO1 131330Z 05013KT 26/18 A2996 RMK A01 T02630184  RH  062%=      5-min Rain = 0
KRO1 131331Z 05012KT 26/18 A2996 RMK A01 T02630184  RH  062%=      5-min Rain = 0
KRO1 131332Z 05011KT 26/18 A2996 RMK A01 T02630184  RH  062%=      5-min Rain = 0
KRO1 131333Z 05010KT 26/19 A2996 RMK A01 T02640185  RH  062%=      5-min Rain = 0
KRO1 131334Z 05012KT 26/18 A2996 RMK A01 T02640184  RH  061%=      5-min Rain = 0
KRO1 131335Z 05012KT 26/18 A2996 RMK A01 T02640183  RH  061%=      5-min Rain = 0
KRO1 131336Z 05010KT 27/18 A2996 RMK A01 T02650184  RH  061%=      5-min Rain = 0
KRO1 131337Z 05012KT 27/18 A2996 RMK A01 T02650184  RH  061%=      5-min Rain = 0
KRO1 131338Z 05014KT 27/18 A2996 RMK A01 T02650182  RH  060%=      5-min Rain = 0
KRO1 131339Z 05013KT 27/18 A2996 RMK A01 T02650181  RH  060%=      5-min Rain = 0
KRO1 131340Z 06012KT 27/18 A2996 RMK A01 T02650182  RH  060%=      5-min Rain = 0
KRO1 131341Z 05013KT 27/18 A2996 RMK A01 T02660181  RH  060%=      5-min Rain = 0
KRO1 131342Z 05012KT 27/18 A2996 RMK A01 T02660182  RH  060%=      5-min Rain = 0
KRO1 131343Z 05013KT 27/18 A2996 RMK A01 T02660181  RH  060%=      5-min Rain = 0
KRO1 131344Z 06012KT 27/18 A2996 RMK A01 T02670182  RH  060%=      5-min Rain = 0
KRO1 131345Z 06011KT 27/18 A2996 RMK A01 T02680182  RH  059%=      5-min Rain = 0
KRO1 131346Z 05010KT 27/18 A2996 RMK A01 T02690183  RH  060%=      5-min Rain = 0
KRO1 131347Z 05011KT 27/18 A2996 RMK A01 T02700183  RH  059%=      5-min Rain = 0
KRO1 131348Z 05013KT 27/18 A2996 RMK A01 T02700183  RH  059%=      5-min Rain = 0
KRO1 131349Z 05013KT 27/18 A2996 RMK A01 T02700182  RH  059%=      5-min Rain = 0
KRO1 131350Z 05013KT 27/18 A2996 RMK A01 T02690182  RH  059%=      5-min Rain = 0
KRO1 131351Z 05012KT 27/18 A2997 RMK A01 T02690182  RH  059%=      5-min Rain = 0
KRO1 131352Z 06014KT 27/18 A2997 RMK A01 T02690183  RH  059%=      5-min Rain = 0
KRO1 131353Z 05014KT 27/18 A2997 RMK A01 T02680181  RH  059%=      5-min Rain = 0
KRO1 131354Z 05014KT 27/18 A2997 RMK A01 T02690182  RH  059%=      5-min Rain = 0
KRO1 131355Z 05014KT 27/18 A2997 RMK A01 T02690181  RH  059%=      5-min Rain = 0
KRO1 131356Z 06013KT 27/18 A2997 RMK A01 T02690181  RH  059%=      5-min Rain = 0
KRO1 131357Z 04011KT 27/18 A2997 RMK A01 T02690183  RH  059%=      5-min Rain = 0
KRO1 131358Z 04011KT 27/18 A2997 RMK A01 T02700183  RH  059%=      5-min Rain = 0
KRO1 131359Z 04012KT 27/18 A2997 RMK A01 T02700183  RH  059%=      5-min Rain = 0
KRO1 131400Z 05012KT 27/18 A2997 RMK A01 T02700183  RH  059%=      5-min Rain = 0
KRO1 131401Z 04012KT 27/18 A2997 RMK A01 T02700182  RH  058%=      5-min Rain = 0
KRO1 131402Z 05012KT 27/18 A2997 RMK A01 T02710183  RH  059%=      5-min Rain = 0
KRO1 131403Z 05012KT 27/18 A2997 RMK A01 T02710183  RH  058%=      5-min Rain = 0
KRO1 131404Z 05011KT 27/18 A2997 RMK A01 T02710184  RH  059%=      5-min Rain = 0
KRO1 131405Z 06011KT 27/18 A2997 RMK A01 T02720184  RH  059%=      5-min Rain = 0
KRO1 131406Z 06010KT 27/19 A2997 RMK A01 T02730185  RH  058%=      5-min Rain = 0
KRO1 131407Z 06009KT 28/19 A2997 RMK A01 T02750187  RH  059%=      5-min Rain = 0
KRO1 131408Z 05011KT 28/19 A2997 RMK A01 T02760185  RH  058%=      5-min Rain = 0
KRO1 131409Z 05010KT 28/19 A2997 RMK A01 T02750185  RH  058%=      5-min Rain = 0
KRO1 131410Z 05013KT 28/19 A2997 RMK A01 T02750185  RH  058%=      5-min Rain = 0
KRO1 131411Z 05013KT 28/18 A2997 RMK A01 T02750183  RH  057%=      5-min Rain = 0
KRO1 131412Z 05012KT 27/18 A2997 RMK A01 T02740184  RH  058%=      5-min Rain = 0
KRO1 131413Z 06011KT 27/19 A2997 RMK A01 T02740186  RH  058%=      5-min Rain = 0
KRO1 131414Z 05012KT 28/19 A2997 RMK A01 T02750185  RH  058%=      5-min Rain = 0
KRO1 131415Z 06011KT 28/19 A2997 RMK A01 T02750185  RH  058%=      5-min Rain = 0
KRO1 131416Z 06011KT 28/19 A2997 RMK A01 T02750185  RH  058%=      5-min Rain = 0
KRO1 131417Z 06011KT 28/19 A2997 RMK A01 T02750185  RH  058%=      5-min Rain = 0
KRO1 131418Z 06011KT 28/19 A2997 RMK A01 T02750186  RH  058%=      5-min Rain = 0
KRO1 131419Z 05010KT 28/19 A2997 RMK A01 T02750186  RH  058%=      5-min Rain = 0
KRO1 131420Z 05012KT 28/19 A2997 RMK A01 T02760186  RH  058%=      5-min Rain = 0
KRO1 131421Z 05010KT 28/19 A2997 RMK A01 T02770185  RH  057%=      5-min Rain = 0
KRO1 131422Z 06009KT 28/19 A2997 RMK A01 T02770186  RH  058%=      5-min Rain = 0
KRO1 131423Z 07009KT 28/19 A2997 RMK A01 T02780189  RH  058%=      5-min Rain = 0
KRO1 131424Z 07012KT 28/19 A2997 RMK A01 T02790186  RH  057%=      5-min Rain = 0
KRO1 131425Z 07011KT 28/19 A2997 RMK A01 T02790185  RH  057%=      5-min Rain = 0
KRO1 131426Z 07010KT 28/19 A2997 RMK A01 T02790186  RH  057%=      5-min Rain = 0
KRO1 131427Z 07010KT 28/19 A2997 RMK A01 T02780185  RH  057%=      5-min Rain = 0
KRO1 131428Z 08012KT 28/19 A2997 RMK A01 T02780186  RH  057%=      5-min Rain = 0
KRO1 131429Z 06009KT 28/19 A2997 RMK A01 T02790186  RH  057%=      5-min Rain = 0
KRO1 131430Z 06010KT 28/19 A2997 RMK A01 T02810188  RH  057%=      5-min Rain = 0
KRO1 131431Z 05011KT 28/19 A2997 RMK A01 T02810188  RH  057%=      5-min Rain = 0
KRO1 131432Z 06010KT 28/19 A2997 RMK A01 T02810189  RH  057%=      5-min Rain = 0
KRO1 131433Z 07009KT 28/19 A2997 RMK A01 T02820189  RH  057%=      5-min Rain = 0
KRO1 131434Z 06008KT 28/19 A2997 RMK A01 T02830190  RH  057%=      5-min Rain = 0
KRO1 131435Z 06010KT 29/19 A2997 RMK A01 T02850189  RH  056%=      5-min Rain = 0
KRO1 131436Z 05009KT 29/19 A2997 RMK A01 T02860189  RH  056%=      5-min Rain = 0
KRO1 131437Z 05009KT 29/19 A2997 RMK A01 T02850189  RH  056%=      5-min Rain = 0
KRO1 131438Z 05009KT 28/19 A2997 RMK A01 T02840189  RH  056%=      5-min Rain = 0
KRO1 131439Z 05010KT 28/19 A2997 RMK A01 T02840189  RH  056%=      5-min Rain = 0
KRO1 131440Z 05009KT 28/19 A2997 RMK A01 T02840190  RH  057%=      5-min Rain = 0
KRO1 131441Z 05010KT 29/19 A2997 RMK A01 T02850190  RH  057%=      5-min Rain = 0
KRO1 131442Z 05011KT 29/19 A2997 RMK A01 T02850187  RH  055%=      5-min Rain = 0
KRO1 131443Z 05009KT 29/19 A2997 RMK A01 T02850188  RH  056%=      5-min Rain = 0
KRO1 131444Z 06009KT 29/19 A2997 RMK A01 T02850188  RH  056%=      5-min Rain = 0
KRO1 131445Z 05009KT 29/19 A2997 RMK A01 T02850188  RH  056%=      5-min Rain = 0
KRO1 131446Z 05010KT 29/19 A2997 RMK A01 T02850187  RH  056%=      5-min Rain = 0
KRO1 131447Z 05009KT 29/19 A2997 RMK A01 T02850189  RH  056%=      5-min Rain = 0
KRO1 131448Z 04007KT 29/19 A2997 RMK A01 T02860189  RH  056%=      5-min Rain = 0
KRO1 131449Z 05008KT 29/19 A2997 RMK A01 T02870191  RH  056%=      5-min Rain = 0
KRO1 131450Z 06008KT 29/19 A2997 RMK A01 T02880192  RH  056%=      5-min Rain = 0
KRO1 131451Z 06008KT 29/19 A2997 RMK A01 T02900190  RH  055%=      5-min Rain = 0
KRO1 131452Z 05010KT 29/19 A2997 RMK A01 T02910188  RH  054%=      5-min Rain = 0
KRO1 131453Z 04011KT 29/19 A2998 RMK A01 T02900188  RH  054%=      5-min Rain = 0
KRO1 131454Z 05009KT 29/19 A2998 RMK A01 T02890188  RH  054%=      5-min Rain = 0
KRO1 131455Z 05009KT 29/19 A2998 RMK A01 T02890190  RH  055%=      5-min Rain = 0
KRO1 131456Z 05011KT 29/19 A2998 RMK A01 T02890188  RH  054%=      5-min Rain = 0
KRO1 131457Z 05009KT 29/19 A2998 RMK A01 T02890186  RH  054%=      5-min Rain = 0
KRO1 131458Z 06007KT 29/19 A2998 RMK A01 T02890188  RH  054%=      5-min Rain = 0
KRO1 131459Z 05007KT 29/19 A2998 RMK A01 T02900188  RH  054%=      5-min Rain = 0
KRO1 131500Z 05006KT 29/19 A2998 RMK A01 T02900187  RH  054%=      5-min Rain = 0
KRO1 131501Z 05005KT 29/19 A2998 RMK A01 T02900189  RH  055%=      5-min Rain = 0
KRO1 131502Z 05007KT 29/19 A2998 RMK A01 T02910193  RH  055%=      5-min Rain = 0
KRO1 131503Z 05009KT 29/19 A2998 RMK A01 T02940190  RH  054%=      5-min Rain = 0
KRO1 131504Z 06009KT 29/19 A2998 RMK A01 T02940188  RH  053%=      5-min Rain = 0
KRO1 131505Z 06006KT 29/19 A2998 RMK A01 T02930186  RH  053%=      5-min Rain = 0
KRO1 131506Z 06007KT 29/19 A2998 RMK A01 T02930189  RH  054%=      5-min Rain = 0
KRO1 131507Z 04008KT 29/19 A2998 RMK A01 T02940189  RH  053%=      5-min Rain = 0
KRO1 131508Z 04007KT 29/19 A2998 RMK A01 T02940190  RH  053%=      5-min Rain = 0
KRO1 131509Z 04004KT 29/19 A2998 RMK A01 T02940192  RH  054%=      5-min Rain = 0
KRO1 131510Z 06008KT 30/19 A2998 RMK A01 T02970191  RH  053%=      5-min Rain = 0
KRO1 131511Z 08007KT 30/19 A2998 RMK A01 T02990189  RH  052%=      5-min Rain = 0
KRO1 131512Z 05008KT 30/19 A2998 RMK A01 T03000189  RH  051%=      5-min Rain = 0
KRO1 131513Z 04006KT 30/19 A2998 RMK A01 T02990189  RH  052%=      5-min Rain = 0
KRO1 131514Z 04007KT 30/19 A2998 RMK A01 T02990190  RH  052%=      5-min Rain = 0
KRO1 131515Z 05007KT 30/19 A2998 RMK A01 T02990190  RH  052%=      5-min Rain = 0
KRO1 131516Z 04005KT 30/19 A2998 RMK A01 T02980188  RH  052%=      5-min Rain = 0
KRO1 131517Z 04005KT 30/19 A2998 RMK A01 T02980188  RH  052%=      5-min Rain = 0
KRO1 131518Z 03007KT 30/19 A2999 RMK A01 T02970188  RH  052%=      5-min Rain = 0
KRO1 131519Z 04007KT 30/19 A2999 RMK A01 T02980188  RH  052%=      5-min Rain = 0
KRO1 131520Z 05005KT 30/19 A2999 RMK A01 T02970190  RH  052%=      5-min Rain = 0
KRO1 131521Z 05008KT 30/19 A2998 RMK A01 T02990193  RH  053%=      5-min Rain = 0
KRO1 131522Z 07008KT 30/19 A2998 RMK A01 T03010190  RH  051%=      5-min Rain = 0
KRO1 131523Z 06006KT 30/19 A2999 RMK A01 T03010190  RH  051%=      5-min Rain = 0
KRO1 131524Z 07005KT 30/19 A2999 RMK A01 T03010188  RH  051%=      5-min Rain = 0
KRO1 131525Z 04008KT 30/19 A2999 RMK A01 T03020191  RH  051%=      5-min Rain = 0
KRO1 131526Z 03007KT 30/19 A2999 RMK A01 T03020190  RH  051%=      5-min Rain = 0
KRO1 131527Z 06009KT 30/19 A2999 RMK A01 T03020189  RH  051%=      5-min Rain = 0
KRO1 131528Z 07007KT 30/19 A2999 RMK A01 T03030192  RH  052%=      5-min Rain = 0
KRO1 131529Z 06007KT 31/19 A2999 RMK A01 T03050190  RH  050%=      5-min Rain = 0
KRO1 131530Z 05007KT 31/19 A2999 RMK A01 T03050192  RH  051%=      5-min Rain = 0
KRO1 131531Z 05005KT 31/19 A2999 RMK A01 T03050189  RH  050%=      5-min Rain = 0
KRO1 131532Z 06005KT 31/19 A2999 RMK A01 T03060194  RH  051%=      5-min Rain = 0
KRO1 131533Z 03005KT 31/19 A2999 RMK A01 T03070189  RH  049%=      5-min Rain = 0
KRO1 131534Z 05005KT 31/19 A2999 RMK A01 T03070191  RH  050%=      5-min Rain = 0
KRO1 131535Z 05008KT 31/19 A2999 RMK A01 T03070191  RH  050%=      5-min Rain = 0
KRO1 131536Z 04007KT 31/19 A2999 RMK A01 T03070191  RH  050%=      5-min Rain = 0
KRO1 131537Z 06006KT 31/19 A2999 RMK A01 T03060189  RH  049%=      5-min Rain = 0
KRO1 131538Z 05008KT 31/19 A2999 RMK A01 T03060190  RH  050%=      5-min Rain = 0
KRO1 131539Z 06005KT 31/19 A2999 RMK A01 T03060190  RH  050%=      5-min Rain = 0
KRO1 131540Z 06003KT 31/19 A2999 RMK A01 T03060189  RH  050%=      5-min Rain = 0
KRO1 131541Z 05005KT 31/19 A2999 RMK A01 T03080192  RH  050%=      5-min Rain = 0
KRO1 131542Z 05007KT 31/19 A2999 RMK A01 T03100192  RH  049%=      5-min Rain = 0
KRO1 131543Z 06007KT 31/19 A2999 RMK A01 T03110191  RH  049%=      5-min Rain = 0
KRO1 131544Z 05007KT 31/19 A2999 RMK A01 T03110191  RH  049%=      5-min Rain = 0
KRO1 131545Z 06007KT 31/19 A2999 RMK A01 T03100188  RH  048%=      5-min Rain = 0
KRO1 131546Z 05005KT 31/19 A2999 RMK A01 T03080187  RH  049%=      5-min Rain = 0
KRO1 131547Z 05006KT 31/19 A2999 RMK A01 T03080188  RH  049%=      5-min Rain = 0
KRO1 131548Z 04007KT 31/19 A2999 RMK A01 T03080189  RH  049%=      5-min Rain = 0
KRO1 131549Z 05006KT 31/19 A2999 RMK A01 T03090191  RH  049%=      5-min Rain = 0
KRO1 131550Z 05007KT 31/19 A2999 RMK A01 T03100190  RH  049%=      5-min Rain = 0
KRO1 131551Z 05006KT 31/19 A2999 RMK A01 T03100190  RH  049%=      5-min Rain = 0
KRO1 131552Z 05004KT 31/19 A2999 RMK A01 T03110189  RH  048%=      5-min Rain = 0
KRO1 131553Z 05003KT 31/19 A2999 RMK A01 T03120189  RH  048%=      5-min Rain = 0
KRO1 131554Z 03001KT 31/19 A2999 RMK A01 T03130189  RH  048%=      5-min Rain = 0
KRO1 131555Z 10004KT 32/19 A2999 RMK A01 T03150190  RH  047%=      5-min Rain = 0
KRO1 131556Z 11005KT 32/19 A2999 RMK A01 T03180188  RH  046%=      5-min Rain = 0
KRO1 131557Z 06005KT 32/19 A2999 RMK A01 T03190191  RH  047%=      5-min Rain = 0
KRO1 131558Z 05005KT 32/19 A2999 RMK A01 T03200189  RH  046%=      5-min Rain = 0
KRO1 131559Z 04006KT 32/19 A2999 RMK A01 T03190191  RH  047%=      5-min Rain = 0
KRO1 131600Z 02005KT 32/19 A2999 RMK A01 T03160187  RH  046%=      5-min Rain = 0
KRO1 131601Z 03005KT 31/19 A2999 RMK A01 T03140188  RH  047%=      5-min Rain = 0
KRO1 131602Z 05004KT 31/19 A2999 RMK A01 T03130188  RH  048%=      5-min Rain = 0
KRO1 131603Z 08003KT 31/19 A2999 RMK A01 T03130187  RH  047%=      5-min Rain = 0
KRO1 131604Z 11005KT 32/19 A2999 RMK A01 T03160189  RH  047%=      5-min Rain = 0
KRO1 131605Z 11005KT 32/19 A2999 RMK A01 T03180188  RH  046%=      5-min Rain = 0
KRO1 131606Z 12005KT 32/19 A2999 RMK A01 T03190188  RH  046%=      5-min Rain = 0
KRO1 131607Z 14003KT 32/19 A2999 RMK A01 T03190187  RH  046%=      5-min Rain = 0
KRO1 131608Z 12004KT 32/19 A2999 RMK A01 T03190187  RH  046%=      5-min Rain = 0
KRO1 131609Z 10003KT 32/19 A2999 RMK A01 T03190189  RH  046%=      5-min Rain = 0
KRO1 131610Z 07002KT 32/19 A2999 RMK A01 T03200190  RH  046%=      5-min Rain = 0
KRO1 131611Z 05000KT 32/19 A2999 RMK A01 T03220190  RH  046%=      5-min Rain = 0
KRO1 131612Z 06002KT 33/19 A2999 RMK A01 T03250190  RH  045%=      5-min Rain = 0
KRO1 131613Z 06002KT 33/19 A2999 RMK A01 T03270191  RH  045%=      5-min Rain = 0
KRO1 131614Z 03002KT 33/19 A2999 RMK A01 T03280192  RH  045%=      5-min Rain = 0
KRO1 131615Z 07006KT 33/19 A2999 RMK A01 T03280191  RH  044%=      5-min Rain = 0
KRO1 131616Z 09007KT 33/19 A2999 RMK A01 T03260192  RH  045%=      5-min Rain = 0
KRO1 131617Z 07004KT 32/19 A30 RMK A01 T03230189  RH  045%=      5-min Rain = 0
KRO1 131618Z 09004KT 32/19 A30 RMK A01 T03200190  RH  046%=      5-min Rain = 0
KRO1 131619Z 11005KT 32/19 A2999 RMK A01 T03210189  RH  046%=      5-min Rain = 0
KRO1 131620Z 11003KT 32/19 A2999 RMK A01 T03230187  RH  045%=      5-min Rain = 0
KRO1 131621Z 13006KT 33/19 A2999 RMK A01 T03280191  RH  044%=      5-min Rain = 0
KRO1 131622Z 15002KT 33/19 A30 RMK A01 T03280188  RH  043%=      5-min Rain = 0
KRO1 131623Z 14002KT 33/19 A2999 RMK A01 T03250188  RH  044%=      5-min Rain = 0
KRO1 131624Z 14003KT 33/19 A30 RMK A01 T03250188  RH  044%=      5-min Rain = 0
KRO1 131625Z 16002KT 33/19 A30 RMK A01 T03280188  RH  044%=      5-min Rain = 0
KRO1 131626Z 16001KT 33/19 A2999 RMK A01 T03290187  RH  043%=      5-min Rain = 0
KRO1 131627Z 16001KT 33/19 A2999 RMK A01 T03280189  RH  044%=      5-min Rain = 0
KRO1 131628Z 05004KT 33/19 A2999 RMK A01 T03280192  RH  045%=      5-min Rain = 0
KRO1 131629Z 08006KT 33/19 A2999 RMK A01 T03300193  RH  045%=      5-min Rain = 0
KRO1 131630Z 08006KT 33/19 A30 RMK A01 T03280191  RH  044%=      5-min Rain = 0
KRO1 131631Z 09005KT 33/19 A30 RMK A01 T03260188  RH  044%=      5-min Rain = 0
KRO1 131632Z 08006KT 33/19 A2999 RMK A01 T03250190  RH  045%=      5-min Rain = 0
KRO1 131633Z 08004KT 33/19 A30 RMK A01 T03250188  RH  044%=      5-min Rain = 0
KRO1 131634Z 13002KT 33/19 A2999 RMK A01 T03250186  RH  044%=      5-min Rain = 0
KRO1 131635Z 07002KT 33/19 A2999 RMK A01 T03260187  RH  044%=      5-min Rain = 0
KRO1 131636Z 06004KT 33/19 A2999 RMK A01 T03290192  RH  044%=      5-min Rain = 0
KRO1 131637Z 09005KT 33/19 A30 RMK A01 T03320191  RH  043%=      5-min Rain = 0
KRO1 131638Z 07003KT 33/19 A30 RMK A01 T03300188  RH  043%=      5-min Rain = 0
KRO1 131639Z 06001KT 33/19 A30 RMK A01 T03280187  RH  043%=      5-min Rain = 0
KRO1 131640Z 05001KT 33/19 A30 RMK A01 T03280187  RH  043%=      5-min Rain = 0
KRO1 131641Z 02002KT 33/19 A30 RMK A01 T03280187  RH  043%=      5-min Rain = 0
KRO1 131642Z 03002KT 33/19 A30 RMK A01 T03280187  RH  043%=      5-min Rain = 0
KRO1 131643Z 02002KT 33/19 A30 RMK A01 T03280186  RH  043%=      5-min Rain = 0
KRO1 131644Z 01001KT 33/19 A30 RMK A01 T03290186  RH  043%=      5-min Rain = 0
KRO1 131645Z 02002KT 33/19 A2999 RMK A01 T03300187  RH  043%=      5-min Rain = 0
KRO1 131646Z 04004KT 33/19 A2999 RMK A01 T03310189  RH  043%=      5-min Rain = 0
KRO1 131647Z 04007KT 33/19 A2999 RMK A01 T03310193  RH  044%=      5-min Rain = 0
KRO1 131648Z 04005KT 33/19 A2999 RMK A01 T03290189  RH  044%=      5-min Rain = 0
KRO1 131649Z 02004KT 33/19 A2999 RMK A01 T03270188  RH  044%=      5-min Rain = 0
KRO1 131650Z 36003KT 33/19 A2999 RMK A01 T03280190  RH  044%=      5-min Rain = 0
KRO1 131651Z 02003KT 33/19 A2999 RMK A01 T03310192  RH  044%=      5-min Rain = 0
KRO1 131652Z 03002KT 33/19 A2999 RMK A01 T03330189  RH  043%=      5-min Rain = 0
KRO1 131653Z 02002KT 33/19 A2999 RMK A01 T03330191  RH  043%=      5-min Rain = 0
KRO1 131654Z 35002KT 33/19 A30 RMK A01 T03340191  RH  043%=      5-min Rain = 0
KRO1 131655Z 34001KT 34/19 A30 RMK A01 T03350190  RH  042%=      5-min Rain = 0
KRO1 131656Z 36003KT 34/19 A30 RMK A01 T03380192  RH  042%=      5-min Rain = 0
KRO1 131657Z 05002KT 34/19 A30 RMK A01 T03400191  RH  041%=      5-min Rain = 0
KRO1 131658Z 10005KT 34/19 A30 RMK A01 T03400188  RH  041%=      5-min Rain = 0
KRO1 131659Z 12004KT 34/19 A30 RMK A01 T03390186  RH  040%=      5-min Rain = 0
KRO1 131700Z 13004KT 34/18 A30 RMK A01 T03390184  RH  040%=      5-min Rain = 0
KRO1 131701Z 09002KT 34/19 A30 RMK A01 T03380186  RH  041%=      5-min Rain = 0
KRO1 131702Z 06002KT 34/19 A30 RMK A01 T03380187  RH  041%=      5-min Rain = 0
KRO1 131703Z 02004KT 34/19 A30 RMK A01 T03380189  RH  041%=      5-min Rain = 0
KRO1 131704Z 01002KT 34/19 A30 RMK A01 T03380189  RH  042%=      5-min Rain = 0
KRO1 131705Z 00004KT 34/19 A30 RMK A01 T03380191  RH  042%=      5-min Rain = 0
KRO1 131706Z 35004KT 34/19 A30 RMK A01 T03400189  RH  041%=      5-min Rain = 0
KRO1 131707Z 03005KT 34/19 A30 RMK A01 T03400193  RH  042%=      5-min Rain = 0
KRO1 131708Z 03007KT 34/19 A30 RMK A01 T03410192  RH  042%=      5-min Rain = 0
KRO1 131709Z 02006KT 34/19 A30 RMK A01 T03380191  RH  042%=      5-min Rain = 0
KRO1 131710Z 07004KT 34/19 A30 RMK A01 T03380190  RH  042%=      5-min Rain = 0
KRO1 131711Z 07002KT 34/19 A30 RMK A01 T03390185  RH  040%=      5-min Rain = 0
KRO1 131712Z 06004KT 34/19 A30 RMK A01 T03410190  RH  041%=      5-min Rain = 0
KRO1 131713Z 07004KT 34/19 A30 RMK A01 T03440192  RH  041%=      5-min Rain = 0
KRO1 131714Z 13002KT 34/19 A30 RMK A01 T03440188  RH  040%=      5-min Rain = 0
KRO1 131715Z 29002KT 34/19 A30 RMK A01 T03440187  RH  040%=      5-min Rain = 0
KRO1 131716Z 33004KT 34/19 A30 RMK A01 T03440190  RH  040%=      5-min Rain = 0
KRO1 131717Z 32002KT 34/19 A30 RMK A01 T03440189  RH  040%=      5-min Rain = 0
KRO1 131718Z 32003KT 34/19 A30 RMK A01 T03440187  RH  040%=      5-min Rain = 0
KRO1 131719Z 04006KT 34/19 A30 RMK A01 T03440189  RH  040%=      5-min Rain = 0
KRO1 131720Z 03006KT 34/19 A30 RMK A01 T03420187  RH  040%=      5-min Rain = 0
KRO1 131721Z 02004KT 34/19 A30 RMK A01 T03380187  RH  041%=      5-min Rain = 0
KRO1 131722Z 03004KT 34/19 A2999 RMK A01 T03370186  RH  041%=      5-min Rain = 0
KRO1 131723Z 01006KT 34/19 A2999 RMK A01 T03380191  RH  042%=      5-min Rain = 0
KRO1 131724Z 01005KT 34/19 A2999 RMK A01 T03430190  RH  041%=      5-min Rain = 0
KRO1 131725Z 03005KT 34/19 A2999 RMK A01 T03440188  RH  040%=      5-min Rain = 0
KRO1 131726Z 03005KT 34/19 A2999 RMK A01 T03430189  RH  040%=      5-min Rain = 0
KRO1 131727Z 04004KT 34/19 A2999 RMK A01 T03410185  RH  040%=      5-min Rain = 0
KRO1 131728Z 03004KT 34/19 A2999 RMK A01 T03400186  RH  040%=      5-min Rain = 0
KRO1 131729Z 04005KT 34/19 A2999 RMK A01 T03420187  RH  040%=      5-min Rain = 0
KRO1 131730Z 06005KT 34/19 A2999 RMK A01 T03430188  RH  040%=      5-min Rain = 0
KRO1 131731Z 02003KT 34/19 A2999 RMK A01 T03430185  RH  039%=      5-min Rain = 0
KRO1 131732Z 36003KT 34/18 A2999 RMK A01 T03440184  RH  039%=      5-min Rain = 0
KRO1 131733Z 01003KT 34/18 A2999 RMK A01 T03420182  RH  039%=      5-min Rain = 0
KRO1 131734Z 01004KT 34/19 A2999 RMK A01 T03420186  RH  040%=      5-min Rain = 0
KRO1 131735Z 03003KT 34/18 A2999 RMK A01 T03440183  RH  039%=      5-min Rain = 0
KRO1 131736Z 06006KT 34/19 A2999 RMK A01 T03440186  RH  039%=      5-min Rain = 0
KRO1 131737Z 07005KT 34/19 A2999 RMK A01 T03440187  RH  040%=      5-min Rain = 0
KRO1 131738Z 08004KT 34/19 A2999 RMK A01 T03440185  RH  039%=      5-min Rain = 0
KRO1 131739Z 06003KT 34/18 A2999 RMK A01 T03440184  RH  039%=      5-min Rain = 0
KRO1 131740Z 02001KT 34/18 A2999 RMK A01 T03430183  RH  039%=      5-min Rain = 0
KRO1 131741Z 01006KT 34/19 A2999 RMK A01 T03440185  RH  039%=      5-min Rain = 0
KRO1 131742Z 01006KT 35/19 A2999 RMK A01 T03450188  RH  040%=      5-min Rain = 0
KRO1 131743Z 01005KT 35/19 A2999 RMK A01 T03470187  RH  039%=      5-min Rain = 0
KRO1 131744Z 02005KT 35/19 A2999 RMK A01 T03480186  RH  038%=      5-min Rain = 0
KRO1 131745Z 03004KT 35/18 A2999 RMK A01 T03480183  RH  038%=      5-min Rain = 0
KRO1 131746Z 01004KT 35/18 A2999 RMK A01 T03450182  RH  038%=      5-min Rain = 0
KRO1 131747Z 01004KT 35/18 A2999 RMK A01 T03450182  RH  038%=      5-min Rain = 0
KRO1 131748Z 35004KT 35/18 A2999 RMK A01 T03450181  RH  038%=      5-min Rain = 0
KRO1 131749Z 04005KT 35/18 A2999 RMK A01 T03450181  RH  038%=      5-min Rain = 0
KRO1 131750Z 05005KT 35/18 A2999 RMK A01 T03460184  RH  038%=      5-min Rain = 0
KRO1 131751Z 06004KT 35/18 A2999 RMK A01 T03460184  RH  038%=      5-min Rain = 0
KRO1 131752Z 03003KT 35/18 A2999 RMK A01 T03450180  RH  038%=      5-min Rain = 0
KRO1 131753Z 05004KT 35/18 A2999 RMK A01 T03450180  RH  038%=      5-min Rain = 0
KRO1 131754Z 09002KT 35/18 A2999 RMK A01 T03450178  RH  037%=      5-min Rain = 0
KRO1 131755Z 09004KT 35/18 A2999 RMK A01 T03460178  RH  037%=      5-min Rain = 0
KRO1 131756Z 09001KT 35/18 A2999 RMK A01 T03510178  RH  036%=      5-min Rain = 0
KRO1 131757Z 04002KT 35/18 A2999 RMK A01 T03530182  RH  036%=      5-min Rain = 0
KRO1 131758Z 04005KT 36/18 A2999 RMK A01 T03550183  RH  036%=      5-min Rain = 0
KRO1 131759Z 06003KT 35/18 A2999 RMK A01 T03510176  RH  036%=      5-min Rain = 0
KRO1 131800Z 08002KT 35/18 A2999 RMK A01 T03470179  RH  037%=      5-min Rain = 0
KRO1 131801Z 03000KT 35/18 A2999 RMK A01 T03470177  RH  037%=      5-min Rain = 0
KRO1 131802Z 09001KT 35/18 A2999 RMK A01 T03490177  RH  036%=      5-min Rain = 0
KRO1 131803Z 10002KT 35/18 A2999 RMK A01 T03500177  RH  036%=      5-min Rain = 0
KRO1 131804Z 02001KT 35/18 A2999 RMK A01 T03510178  RH  036%=      5-min Rain = 0
KRO1 131805Z 34001KT 35/18 A2999 RMK A01 T03500178  RH  036%=      5-min Rain = 0
KRO1 131806Z 34000KT 35/18 A2999 RMK A01 T03490177  RH  036%=      5-min Rain = 0
KRO1 131807Z 33000KT 35/18 A2999 RMK A01 T03500178  RH  036%=      5-min Rain = 0
KRO1 131808Z 34002KT 35/18 A2999 RMK A01 T03520179  RH  036%=      5-min Rain = 0
KRO1 131809Z 32002KT 35/18 A2999 RMK A01 T03520180  RH  036%=      5-min Rain = 0
KRO1 131810Z 25003KT 35/18 A2999 RMK A01 T03530180  RH  036%=      5-min Rain = 0
KRO1 131811Z 29001KT 36/18 A2999 RMK A01 T03560180  RH  035%=      5-min Rain = 0
KRO1 131812Z 33000KT 36/18 A2999 RMK A01 T03550180  RH  036%=      5-min Rain = 0
KRO1 131813Z 04002KT 35/19 A2999 RMK A01 T03540185  RH  037%=      5-min Rain = 0
KRO1 131814Z 09003KT 36/19 A2999 RMK A01 T03550193  RH  039%=      5-min Rain = 0
KRO1 131815Z 11003KT 36/19 A2999 RMK A01 T03600192  RH  037%=      5-min Rain = 0
KRO1 131816Z 05003KT 36/20 A2999 RMK A01 T03610195  RH  038%=      5-min Rain = 0
KRO1 131817Z 09003G8KT 36/19 A2999 RMK A01 T03630191  RH  037%=      5-min Rain = 0
KRO1 131818Z 06007KT 36/19 A2999 RMK A01 T03600193  RH  037%=      5-min Rain = 0
KRO1 131819Z 07007KT 36/19 A2999 RMK A01 T03560193  RH  038%=      5-min Rain = 0
KRO1 131820Z 06008KT 36/19 A2999 RMK A01 T03550193  RH  039%=      5-min Rain = 0
KRO1 131821Z 05010KT 35/19 A2999 RMK A01 T03540193  RH  039%=      5-min Rain = 0
KRO1 131822Z 05007KT 35/19 A2999 RMK A01 T03510189  RH  039%=      5-min Rain = 0
KRO1 131823Z 05004KT 35/19 A2999 RMK A01 T03480189  RH  039%=      5-min Rain = 0
KRO1 131824Z 07006KT 35/19 A2999 RMK A01 T03500188  RH  039%=      5-min Rain = 0
KRO1 131825Z 05005KT 35/19 A2999 RMK A01 T03510187  RH  038%=      5-min Rain = 0
KRO1 131826Z 01004KT 35/19 A2999 RMK A01 T03510188  RH  038%=      5-min Rain = 0
KRO1 131827Z 05005KT 35/19 A2999 RMK A01 T03510188  RH  038%=      5-min Rain = 0
KRO1 131828Z 09005KT 35/19 A2999 RMK A01 T03520192  RH  039%=      5-min Rain = 0
KRO1 131829Z 08005KT 35/19 A2999 RMK A01 T03530187  RH  038%=      5-min Rain = 0
KRO1 131830Z 05005KT 35/19 A2999 RMK A01 T03530188  RH  038%=      5-min Rain = 0
KRO1 131831Z 02003KT 35/19 A2999 RMK A01 T03530187  RH  038%=      5-min Rain = 0
KRO1 131832Z 01003KT 35/18 A2999 RMK A01 T03510184  RH  037%=      5-min Rain = 0
KRO1 131833Z 02002KT 35/18 A2998 RMK A01 T03510184  RH  037%=      5-min Rain = 0
KRO1 131834Z 01001KT 35/18 A2998 RMK A01 T03500183  RH  037%=      5-min Rain = 0
KRO1 131835Z 02001KT 35/18 A2998 RMK A01 T03520184  RH  037%=      5-min Rain = 0
KRO1 131836Z 10001KT 36/18 A2998 RMK A01 T03550184  RH  036%=      5-min Rain = 0
KRO1 131837Z 10001KT 36/18 A2998 RMK A01 T03570184  RH  036%=      5-min Rain = 0
KRO1 131838Z 10001KT 36/18 A2998 RMK A01 T03580184  RH  036%=      5-min Rain = 0
KRO1 131839Z 10001KT 36/18 A2998 RMK A01 T03580184  RH  036%=      5-min Rain = 0
KRO1 131840Z 13001KT 36/19 A2998 RMK A01 T03570185  RH  037%=      5-min Rain = 0
KRO1 131841Z 11004KT 36/19 A2998 RMK A01 T03570189  RH  037%=      5-min Rain = 0
KRO1 131842Z 10006KT 36/19 A2998 RMK A01 T03600189  RH  037%=      5-min Rain = 0
KRO1 131843Z 08007KT 36/19 A2998 RMK A01 T03640188  RH  036%=      5-min Rain = 0
KRO1 131844Z 10009KT 36/19 A2998 RMK A01 T03630185  RH  035%=      5-min Rain = 0
KRO1 131845Z 09008KT 36/19 A2998 RMK A01 T03610186  RH  036%=      5-min Rain = 0
KRO1 131846Z 07007KT 36/19 A2998 RMK A01 T03600185  RH  036%=      5-min Rain = 0
KRO1 131847Z 08006KT 36/19 A2998 RMK A01 T03590186  RH  036%=      5-min Rain = 0
KRO1 131848Z 07005KT 36/19 A2998 RMK A01 T03580185  RH  036%=      5-min Rain = 0
KRO1 131849Z 08006KT 36/19 A2998 RMK A01 T03610188  RH  036%=      5-min Rain = 0
KRO1 131850Z 10004KT 36/18 A2998 RMK A01 T03620183  RH  035%=      5-min Rain = 0
KRO1 131851Z 09003KT 36/18 A2998 RMK A01 T03610181  RH  035%=      5-min Rain = 0
KRO1 131852Z 10004KT 36/18 A2998 RMK A01 T03600181  RH  035%=      5-min Rain = 0
KRO1 131853Z 09006KT 36/18 A2998 RMK A01 T03600181  RH  035%=      5-min Rain = 0
KRO1 131854Z 05004KT 36/18 A2998 RMK A01 T03610184  RH  035%=      5-min Rain = 0
KRO1 131855Z 03005KT 36/19 A2998 RMK A01 T03610185  RH  035%=      5-min Rain = 0
KRO1 131856Z 05005KT 36/19 A2998 RMK A01 T03600186  RH  036%=      5-min Rain = 0
KRO1 131857Z 05003KT 36/19 A2998 RMK A01 T03600186  RH  036%=      5-min Rain = 0
KRO1 131858Z 01003KT 36/19 A2998 RMK A01 T03600187  RH  036%=      5-min Rain = 0
KRO1 131859Z 04003KT 36/19 A2998 RMK A01 T03620187  RH  036%=      5-min Rain = 0
KRO1 131900Z 10004KT 36/18 A2998 RMK A01 T03640184  RH  035%=      5-min Rain = 0
KRO1 131901Z 10002KT 37/18 A2998 RMK A01 T03650183  RH  035%=      5-min Rain = 0
KRO1 131902Z 07001KT 37/18 A2998 RMK A01 T03650184  RH  035%=      5-min Rain = 0
KRO1 131903Z 07002KT 37/18 A2998 RMK A01 T03660184  RH  034%=      5-min Rain = 0
KRO1 131904Z 00003KT 37/19 A2998 RMK A01 T03660186  RH  035%=      5-min Rain = 0
KRO1 131905Z 01004KT 37/19 A2998 RMK A01 T03660187  RH  035%=      5-min Rain = 0
KRO1 131906Z 04003KT 37/19 A2998 RMK A01 T03670189  RH  035%=      5-min Rain = 0
KRO1 131907Z 33002KT 37/19 A2998 RMK A01 T03660186  RH  035%=      5-min Rain = 0
KRO1 131908Z 31005KT 37/19 A2997 RMK A01 T03650187  RH  035%=      5-min Rain = 0
KRO1 131909Z 31004KT 37/19 A2997 RMK A01 T03650187  RH  035%=      5-min Rain = 0
KRO1 131910Z 31002KT 36/19 A2997 RMK A01 T03640185  RH  035%=      5-min Rain = 0
KRO1 131911Z 06001KT 36/19 A2997 RMK A01 T03640185  RH  035%=      5-min Rain = 0
KRO1 131912Z 02001KT 36/19 A2997 RMK A01 T03630186  RH  035%=      5-min Rain = 0
KRO1 131913Z 04001G6KT 36/19 A2997 RMK A01 T03640186  RH  035%=      5-min Rain = 0
KRO1 131914Z 07004KT 37/19 A2997 RMK A01 T03650190  RH  036%=      5-min Rain = 0
KRO1 131915Z 03005KT 37/19 A2997 RMK A01 T03660193  RH  036%=      5-min Rain = 0
KRO1 131916Z 03002KT 37/19 A2997 RMK A01 T03660190  RH  036%=      5-min Rain = 0
KRO1 131917Z 34000KT 37/19 A2997 RMK A01 T03660188  RH  035%=      5-min Rain = 0
KRO1 131918Z 35001KT 37/19 A2997 RMK A01 T03670188  RH  035%=      5-min Rain = 0
KRO1 131919Z 35001KT 37/19 A2997 RMK A01 T03680189  RH  035%=      5-min Rain = 0
KRO1 131920Z 01000KT 37/19 A2997 RMK A01 T03690189  RH  035%=      5-min Rain = 0
KRO1 131921Z 06008KT 37/20 A2997 RMK A01 T03700195  RH  036%=      5-min Rain = 0
KRO1 131922Z 04008KT 37/20 A2997 RMK A01 T03700195  RH  036%=      5-min Rain = 0
KRO1 131923Z 03006KT 37/19 A2997 RMK A01 T03690193  RH  036%=      5-min Rain = 0
KRO1 131924Z 06006KT 37/19 A2997 RMK A01 T03680191  RH  036%=      5-min Rain = 0
KRO1 131925Z 06006KT 37/19 A2997 RMK A01 T03670193  RH  036%=      5-min Rain = 0
KRO1 131926Z 05006KT 37/19 A2997 RMK A01 T03670194  RH  036%=      5-min Rain = 0
KRO1 131927Z 07008KT 37/19 A2997 RMK A01 T03670194  RH  036%=      5-min Rain = 0
KRO1 131928Z 08011KT 37/19 A2997 RMK A01 T03650191  RH  036%=      5-min Rain = 0
KRO1 131929Z 10012KT 37/19 A2997 RMK A01 T03650191  RH  036%=      5-min Rain = 0
KRO1 131930Z 11010KT 36/19 A2997 RMK A01 T03640188  RH  036%=      5-min Rain = 0
KRO1 131931Z 09005G10KT 36/19 A2997 RMK A01 T03630188  RH  036%=      5-min Rain = 0
KRO1 131932Z 07008KT 36/19 A2997 RMK A01 T03620194  RH  037%=      5-min Rain = 0
KRO1 131933Z 07006KT 36/19 A2997 RMK A01 T03630192  RH  037%=      5-min Rain = 0
KRO1 131934Z 08005KT 37/19 A2997 RMK A01 T03660191  RH  036%=      5-min Rain = 0
KRO1 131935Z 12005KT 37/19 A2997 RMK A01 T03670189  RH  035%=      5-min Rain = 0
KRO1 131936Z 15002KT 37/19 A2997 RMK A01 T03670188  RH  035%=      5-min Rain = 0
KRO1 131937Z 08002KT 37/19 A2997 RMK A01 T03660187  RH  035%=      5-min Rain = 0
KRO1 131938Z 04006G11KT 37/19 A2997 RMK A01 T03670191  RH  036%=      5-min Rain = 0
KRO1 131939Z 04009KT 37/19 A2997 RMK A01 T03680190  RH  035%=      5-min Rain = 0
KRO1 131940Z 04008KT 36/19 A2997 RMK A01 T03640190  RH  036%=      5-min Rain = 0
KRO1 131941Z 07007KT 36/19 A2997 RMK A01 T03630193  RH  037%=      5-min Rain = 0
KRO1 131942Z 09007KT 36/19 A2997 RMK A01 T03640190  RH  036%=      5-min Rain = 0
KRO1 131943Z 10005KT 37/19 A2997 RMK A01 T03660188  RH  035%=      5-min Rain = 0
KRO1 131944Z 09005KT 37/19 A2997 RMK A01 T03660188  RH  035%=      5-min Rain = 0
KRO1 131945Z 09005KT 37/19 A2997 RMK A01 T03690190  RH  035%=      5-min Rain = 0
KRO1 131946Z 06004KT 37/19 A2997 RMK A01 T03700194  RH  036%=      5-min Rain = 0
KRO1 131947Z 02004KT 37/19 A2997 RMK A01 T03720192  RH  035%=      5-min Rain = 0
KRO1 131948Z 36003KT 37/19 A2997 RMK A01 T03740190  RH  034%=      5-min Rain = 0
KRO1 131949Z 00002KT 38/19 A2997 RMK A01 T03750189  RH  034%=      5-min Rain = 0
KRO1 131950Z 02002KT 38/19 A2997 RMK A01 T03760187  RH  033%=      5-min Rain = 0
KRO1 131951Z 01003KT 38/19 A2997 RMK A01 T03750188  RH  034%=      5-min Rain = 0
KRO1 131952Z 34002KT 37/19 A2997 RMK A01 T03730187  RH  034%=      5-min Rain = 0
KRO1 131953Z 35001KT 37/19 A2997 RMK A01 T03710186  RH  034%=      5-min Rain = 0
KRO1 131954Z 05003G8KT 37/19 A2997 RMK A01 T03700186  RH  034%=      5-min Rain = 0
KRO1 131955Z 06007KT 37/19 A2997 RMK A01 T03710193  RH  035%=      5-min Rain = 0
KRO1 131956Z 05008KT 37/19 A2997 RMK A01 T03720191  RH  035%=      5-min Rain = 0
KRO1 131957Z 04006KT 37/19 A2997 RMK A01 T03700189  RH  035%=      5-min Rain = 0
KRO1 131958Z 04006KT 37/19 A2997 RMK A01 T03700190  RH  035%=      5-min Rain = 0
KRO1 131959Z 04005KT 37/19 A2997 RMK A01 T03710189  RH  035%=      5-min Rain = 0
KRO1 132000Z 05008KT 37/19 A2996 RMK A01 T03710189  RH  035%=      5-min Rain = 0
KRO1 132001Z 04004KT 37/19 A2996 RMK A01 T03710189  RH  035%=      5-min Rain = 0
KRO1 132002Z 05003KT 37/19 A2996 RMK A01 T03710188  RH  034%=      5-min Rain = 0
KRO1 132003Z 03006KT 37/19 A2996 RMK A01 T03730189  RH  034%=      5-min Rain = 0
KRO1 132004Z 03004KT 37/19 A2996 RMK A01 T03700187  RH  034%=      5-min Rain = 0
KRO1 132005Z 05006KT 37/19 A2996 RMK A01 T03700190  RH  035%=      5-min Rain = 0
KRO1 132006Z 05005KT 37/19 A2996 RMK A01 T03700189  RH  035%=      5-min Rain = 0
KRO1 132007Z 06011KT 37/20 A2996 RMK A01 T03690196  RH  037%=      5-min Rain = 0
KRO1 132008Z 07010KT 37/20 A2996 RMK A01 T03690196  RH  036%=      5-min Rain = 0
KRO1 132009Z 06010KT 37/20 A2996 RMK A01 T03680198  RH  037%=      5-min Rain = 0
KRO1 132010Z 06009KT 36/20 A2996 RMK A01 T03640195  RH  037%=      5-min Rain = 0
KRO1 132011Z 07007KT 36/20 A2996 RMK A01 T03600196  RH  038%=      5-min Rain = 0
KRO1 132012Z 09008KT 36/20 A2996 RMK A01 T03590196  RH  038%=      5-min Rain = 0
KRO1 132013Z 08009KT 36/20 A2996 RMK A01 T03600196  RH  038%=      5-min Rain = 0
KRO1 132014Z 10007KT 36/20 A2996 RMK A01 T03590199  RH  039%=      5-min Rain = 0
KRO1 132015Z 11009KT 36/20 A2996 RMK A01 T03610199  RH  039%=      5-min Rain = 0
KRO1 132016Z 11008KT 36/20 A2996 RMK A01 T03630198  RH  038%=      5-min Rain = 0
KRO1 132017Z 11009KT 37/20 A2996 RMK A01 T03670199  RH  038%=      5-min Rain = 0
KRO1 132018Z 09012KT 37/20 A2996 RMK A01 T03710202  RH  037%=      5-min Rain = 0
KRO1 132019Z 10009KT 37/20 A2996 RMK A01 T03730198  RH  036%=      5-min Rain = 0
KRO1 132020Z 07008KT 37/20 A2996 RMK A01 T03710202  RH  037%=      5-min Rain = 0
KRO1 132021Z 07011KT 37/20 A2996 RMK A01 T03710201  RH  037%=      5-min Rain = 0
KRO1 132022Z 07009KT 37/20 A2996 RMK A01 T03690198  RH  037%=      5-min Rain = 0
KRO1 132023Z 05010KT 37/21 A2996 RMK A01 T03680205  RH  039%=      5-min Rain = 0
KRO1 132024Z 04010KT 37/20 A2996 RMK A01 T03700199  RH  037%=      5-min Rain = 0
KRO1 132025Z 04010KT 37/20 A2996 RMK A01 T03680201  RH  038%=      5-min Rain = 0
KRO1 132026Z 03010KT 37/20 A2996 RMK A01 T03680199  RH  037%=      5-min Rain = 0
KRO1 132027Z 05006KT 37/20 A2996 RMK A01 T03650197  RH  038%=      5-min Rain = 0
KRO1 132028Z 04010KT 37/20 A2996 RMK A01 T03650200  RH  038%=      5-min Rain = 0
KRO1 132029Z 04011KT 36/20 A2996 RMK A01 T03630198  RH  038%=      5-min Rain = 0
KRO1 132030Z 04011KT 36/20 A2996 RMK A01 T03600197  RH  039%=      5-min Rain = 0
KRO1 132031Z 04011KT 36/20 A2996 RMK A01 T03580195  RH  038%=      5-min Rain = 0
KRO1 132032Z 04007KT 36/19 A2996 RMK A01 T03560194  RH  039%=      5-min Rain = 0
KRO1 132033Z 07011KT 36/20 A2996 RMK A01 T03600201  RH  039%=      5-min Rain = 0
KRO1 132034Z 08010KT 36/20 A2996 RMK A01 T03620199  RH  039%=      5-min Rain = 0
KRO1 132035Z 08009KT 36/20 A2996 RMK A01 T03600198  RH  039%=      5-min Rain = 0
KRO1 132036Z 07008KT 36/20 A2996 RMK A01 T03590195  RH  038%=      5-min Rain = 0
KRO1 132037Z 06008KT 36/20 A2996 RMK A01 T03560196  RH  039%=      5-min Rain = 0
KRO1 132038Z 07007KT 36/20 A2996 RMK A01 T03550197  RH  040%=      5-min Rain = 0
KRO1 132039Z 08005KT 35/19 A2995 RMK A01 T03540193  RH  039%=      5-min Rain = 0
KRO1 132040Z 07004KT 35/20 A2995 RMK A01 T03540195  RH  039%=      5-min Rain = 0
KRO1 132041Z 07009KT 36/20 A2995 RMK A01 T03560198  RH  040%=      5-min Rain = 0
KRO1 132042Z 08006KT 36/20 A2995 RMK A01 T03600196  RH  038%=      5-min Rain = 0
KRO1 132043Z 06004KT 36/20 A2995 RMK A01 T03630197  RH  038%=      5-min Rain = 0
KRO1 132044Z 06005KT 37/19 A2995 RMK A01 T03650194  RH  037%=      5-min Rain = 0
KRO1 132045Z 07004KT 37/20 A2995 RMK A01 T03650197  RH  038%=      5-min Rain = 0
KRO1 132046Z 05005KT 37/20 A2995 RMK A01 T03680201  RH  038%=      5-min Rain = 0
KRO1 132047Z 04004KT 37/19 A2995 RMK A01 T03690193  RH  036%=      5-min Rain = 0
KRO1 132048Z 09006KT 37/20 A2995 RMK A01 T03670196  RH  037%=      5-min Rain = 0
KRO1 132049Z 07010KT 37/20 A2995 RMK A01 T03690197  RH  037%=      5-min Rain = 0
KRO1 132050Z 06010KT 37/20 A2995 RMK A01 T03700200  RH  037%=      5-min Rain = 0
KRO1 132051Z 08008KT 37/20 A2995 RMK A01 T03710198  RH  037%=      5-min Rain = 0
KRO1 132052Z 06004KT 37/19 A2995 RMK A01 T03700194  RH  036%=      5-min Rain = 0
KRO1 132053Z 08004KT 37/19 A2995 RMK A01 T03700194  RH  036%=      5-min Rain = 0
KRO1 132054Z 11005KT 37/20 A2995 RMK A01 T03720196  RH  036%=      5-min Rain = 0
KRO1 132055Z 09008KT 37/20 A2995 RMK A01 T03740199  RH  036%=      5-min Rain = 0
KRO1 132056Z 10009KT 37/20 A2995 RMK A01 T03730196  RH  036%=      5-min Rain = 0
KRO1 132057Z 11008KT 37/20 A2995 RMK A01 T03710196  RH  036%=      5-min Rain = 0
KRO1 132058Z 11012KT 37/19 A2995 RMK A01 T03690193  RH  036%=      5-min Rain = 0
KRO1 132059Z 11007KT 37/19 A2995 RMK A01 T03680192  RH  036%=      5-min Rain = 0
KRO1 132100Z 09004KT 37/20 A2995 RMK A01 T03720200  RH  037%=      5-min Rain = 0
KRO1 132101Z 06005KT 38/20 A2995 RMK A01 T03770201  RH  036%=      5-min Rain = 0
KRO1 132102Z 06009KT 37/20 A2995 RMK A01 T03740198  RH  036%=      5-min Rain = 0
KRO1 132103Z 06006KT 37/20 A2995 RMK A01 T03700199  RH  037%=      5-min Rain = 0
KRO1 132104Z 05005KT 37/20 A2995 RMK A01 T03680195  RH  036%=      5-min Rain = 0
KRO1 132105Z 00003KT 37/19 A2995 RMK A01 T03660190  RH  036%=      5-min Rain = 0
KRO1 132106Z 22002KT 37/19 A2995 RMK A01 T03650189  RH  036%=      5-min Rain = 0
KRO1 132107Z 06005G10KT 37/19 A2995 RMK A01 T03650192  RH  036%=      5-min Rain = 0
KRO1 132108Z 06009KT 37/20 A2995 RMK A01 T03670196  RH  037%=      5-min Rain = 0
KRO1 132109Z 06005KT 37/20 A2995 RMK A01 T03670199  RH  038%=      5-min Rain = 0
KRO1 132110Z 06007KT 37/20 A2995 RMK A01 T03660197  RH  037%=      5-min Rain = 0
KRO1 132111Z 07008KT 37/20 A2995 RMK A01 T03650196  RH  037%=      5-min Rain = 0
KRO1 132112Z 09008KT 37/20 A2995 RMK A01 T03680195  RH  037%=      5-min Rain = 0
KRO1 132113Z 10007KT 37/19 A2995 RMK A01 T03690194  RH  036%=      5-min Rain = 0
KRO1 132114Z 07007KT 37/20 A2995 RMK A01 T03730198  RH  036%=      5-min Rain = 0
KRO1 132115Z 05008KT 37/20 A2994 RMK A01 T03740198  RH  036%=      5-min Rain = 0
KRO1 132116Z 06007KT 38/20 A2994 RMK A01 T03750198  RH  036%=      5-min Rain = 0
KRO1 132117Z 09008KT 38/20 A2994 RMK A01 T03750201  RH  037%=      5-min Rain = 0
KRO1 132118Z 10008KT 38/20 A2994 RMK A01 T03790202  RH  036%=      5-min Rain = 0
KRO1 132119Z 08011KT 38/20 A2994 RMK A01 T03820198  RH  034%=      5-min Rain = 0
KRO1 132120Z 10010KT 38/20 A2994 RMK A01 T03770198  RH  035%=      5-min Rain = 0
KRO1 132121Z 11008KT 38/19 A2995 RMK A01 T03760194  RH  035%=      5-min Rain = 0
KRO1 132122Z 08007KT 38/20 A2995 RMK A01 T03770195  RH  035%=      5-min Rain = 0
KRO1 132123Z 08009KT 38/20 A2995 RMK A01 T03760195  RH  035%=      5-min Rain = 0
KRO1 132124Z 09010KT 37/20 A2995 RMK A01 T03740196  RH  036%=      5-min Rain = 0
KRO1 132125Z 10006KT 37/19 A2995 RMK A01 T03690191  RH  035%=      5-min Rain = 0
KRO1 132126Z 10009KT 37/19 A2994 RMK A01 T03670192  RH  036%=      5-min Rain = 0
KRO1 132127Z 11007KT 37/19 A2994 RMK A01 T03660193  RH  036%=      5-min Rain = 0
KRO1 132128Z 13007KT 37/19 A2994 RMK A01 T03660191  RH  036%=      5-min Rain = 0
KRO1 132129Z 09009KT 37/19 A2994 RMK A01 T03690193  RH  036%=      5-min Rain = 0
KRO1 132130Z 05007KT 37/20 A2994 RMK A01 T03690196  RH  037%=      5-min Rain = 0
KRO1 132131Z 05006KT 37/20 A2994 RMK A01 T03670199  RH  038%=      5-min Rain = 0
KRO1 132132Z 06009KT 37/20 A2994 RMK A01 T03650197  RH  038%=      5-min Rain = 0
KRO1 132133Z 05009KT 36/20 A2994 RMK A01 T03630195  RH  037%=      5-min Rain = 0
KRO1 132134Z 07007KT 36/19 A2994 RMK A01 T03630194  RH  037%=      5-min Rain = 0
KRO1 132135Z 06007KT 37/20 A2994 RMK A01 T03660200  RH  038%=      5-min Rain = 0
KRO1 132136Z 06008KT 37/20 A2994 RMK A01 T03710198  RH  036%=      5-min Rain = 0
KRO1 132137Z 08008KT 37/20 A2994 RMK A01 T03720196  RH  036%=      5-min Rain = 0
KRO1 132138Z 07010KT 37/20 A2994 RMK A01 T03720197  RH  036%=      5-min Rain = 0
KRO1 132139Z 09008KT 37/19 A2994 RMK A01 T03720194  RH  036%=      5-min Rain = 0
KRO1 132140Z 09010KT 37/20 A2994 RMK A01 T03720195  RH  036%=      5-min Rain = 0
KRO1 132141Z 07007KT 37/20 A2994 RMK A01 T03740195  RH  035%=      5-min Rain = 0
KRO1 132142Z 06006KT 37/19 A2994 RMK A01 T03720192  RH  035%=      5-min Rain = 0
KRO1 132143Z 05012KT 37/20 A2994 RMK A01 T03710197  RH  036%=      5-min Rain = 0
KRO1 132144Z 03012KT 37/20 A2994 RMK A01 T03700197  RH  036%=      5-min Rain = 0
KRO1 132145Z 02008KT 37/20 A2994 RMK A01 T03670195  RH  037%=      5-min Rain = 0
KRO1 132146Z 03012KT 37/20 A2994 RMK A01 T03660199  RH  038%=      5-min Rain = 0
KRO1 132147Z 05016KT 37/20 A2994 RMK A01 T03670199  RH  038%=      5-min Rain = 0
KRO1 132148Z 09009G14KT 37/20 A2994 RMK A01 T03660197  RH  037%=      5-min Rain = 0
KRO1 132149Z 06009KT 37/20 A2994 RMK A01 T03680200  RH  038%=      5-min Rain = 0
KRO1 132150Z 06012KT 37/20 A2994 RMK A01 T03670200  RH  038%=      5-min Rain = 0
KRO1 132151Z 05017KT 36/20 A2994 RMK A01 T03630201  RH  039%=      5-min Rain = 0
KRO1 132152Z 04015KT 36/20 A2994 RMK A01 T03590199  RH  039%=      5-min Rain = 0
KRO1 132153Z 05012KT 36/20 A2994 RMK A01 T03560201  RH  040%=      5-min Rain = 0
KRO1 132154Z 05013KT 36/20 A2994 RMK A01 T03560202  RH  041%=      5-min Rain = 0
KRO1 132155Z 05015KT 36/20 A2994 RMK A01 T03580200  RH  040%=      5-min Rain = 0
KRO1 132156Z 04015KT 36/20 A2993 RMK A01 T03590198  RH  039%=      5-min Rain = 0
KRO1 132157Z 04014KT 36/20 A2994 RMK A01 T03590199  RH  039%=      5-min Rain = 0
KRO1 132158Z 06014KT 36/20 A2993 RMK A01 T03590202  RH  040%=      5-min Rain = 0
KRO1 132159Z 05018KT 36/20 A2993 RMK A01 T03600201  RH  039%=      5-min Rain = 0
KRO1 132200Z 06015KT 36/20 A2993 RMK A01 T03610200  RH  039%=      5-min Rain = 0
KRO1 132201Z 05015KT 36/20 A2993 RMK A01 T03610199  RH  039%=      5-min Rain = 0
KRO1 132202Z 04013KT 36/20 A2993 RMK A01 T03590201  RH  040%=      5-min Rain = 0
KRO1 132203Z 04015G21KT 36/20 A2993 RMK A01 T03590201  RH  040%=      5-min Rain = 0
KRO1 132204Z 04015KT 36/20 A2993 RMK A01 T03590202  RH  040%=      5-min Rain = 0
KRO1 132205Z 04017KT 36/20 A2993 RMK A01 T03610200  RH  039%=      5-min Rain = 0
KRO1 132206Z 03013KT 36/20 A2993 RMK A01 T03600200  RH  039%=      5-min Rain = 0
KRO1 132207Z 03013KT 36/20 A2993 RMK A01 T03600200  RH  039%=      5-min Rain = 0
KRO1 132208Z 04016KT 36/20 A2993 RMK A01 T03600201  RH  040%=      5-min Rain = 0
KRO1 132209Z 05015KT 36/20 A2993 RMK A01 T03600201  RH  040%=      5-min Rain = 0
KRO1 132210Z 05013KT 36/20 A2993 RMK A01 T03580200  RH  040%=      5-min Rain = 0
KRO1 132211Z 04013KT 36/20 A2993 RMK A01 T03560200  RH  040%=      5-min Rain = 0
KRO1 132212Z 04011KT 36/20 A2993 RMK A01 T03570202  RH  040%=      5-min Rain = 0
KRO1 132213Z 05009KT 36/20 A2993 RMK A01 T03580204  RH  041%=      5-min Rain = 0
KRO1 132214Z 05013KT 36/20 A2993 RMK A01 T03610203  RH  040%=      5-min Rain = 0
KRO1 132215Z 06016KT 36/20 A2993 RMK A01 T03610200  RH  039%=      5-min Rain = 0
KRO1 132216Z 06015KT 36/20 A2993 RMK A01 T03580198  RH  039%=      5-min Rain = 0
KRO1 132217Z 06012KT 36/20 A2993 RMK A01 T03560201  RH  040%=      5-min Rain = 0
KRO1 132218Z 06015KT 36/20 A2993 RMK A01 T03570199  RH  040%=      5-min Rain = 0
KRO1 132219Z 06014KT 36/20 A2993 RMK A01 T03570198  RH  039%=      5-min Rain = 0
KRO1 132220Z 05015KT 35/20 A2993 RMK A01 T03540199  RH  040%=      5-min Rain = 0
KRO1 132221Z 04013KT 35/20 A2993 RMK A01 T03520199  RH  041%=      5-min Rain = 0
KRO1 132222Z 04012KT 35/20 A2993 RMK A01 T03510198  RH  041%=      5-min Rain = 0
KRO1 132223Z 04010KT 35/20 A2993 RMK A01 T03510199  RH  041%=      5-min Rain = 0
KRO1 132224Z 06009KT 35/20 A2993 RMK A01 T03510202  RH  042%=      5-min Rain = 0
KRO1 132225Z 06012KT 35/20 A2993 RMK A01 T03520199  RH  041%=      5-min Rain = 0
KRO1 132226Z 05011G18KT 35/20 A2993 RMK A01 T03520200  RH  041%=      5-min Rain = 0
KRO1 132227Z 05015KT 35/20 A2993 RMK A01 T03520200  RH  041%=      5-min Rain = 0
KRO1 132228Z 04015KT 35/20 A2993 RMK A01 T03500198  RH  041%=      5-min Rain = 0
KRO1 132229Z 06013KT 35/20 A2993 RMK A01 T03490199  RH  041%=      5-min Rain = 0
KRO1 132230Z 05010KT 35/20 A2993 RMK A01 T03490199  RH  042%=      5-min Rain = 0
KRO1 132231Z 05011KT 35/20 A2993 RMK A01 T03500201  RH  042%=      5-min Rain = 0
KRO1 132232Z 06013KT 35/20 A2993 RMK A01 T03540201  RH  041%=      5-min Rain = 0
KRO1 132233Z 05013KT 36/20 A2993 RMK A01 T03560202  RH  041%=      5-min Rain = 0
KRO1 132234Z 04015KT 36/20 A2993 RMK A01 T03570199  RH  040%=      5-min Rain = 0
KRO1 132235Z 05012KT 36/20 A2993 RMK A01 T03550197  RH  040%=      5-min Rain = 0
KRO1 132236Z 05008KT 35/20 A2993 RMK A01 T03540198  RH  040%=      5-min Rain = 0
KRO1 132237Z 05008G13KT 35/20 A2993 RMK A01 T03540203  RH  041%=      5-min Rain = 0
KRO1 132238Z 05013KT 35/20 A2993 RMK A01 T03540200  RH  041%=      5-min Rain = 0
KRO1 132239Z 05011KT 36/20 A2993 RMK A01 T03550201  RH  041%=      5-min Rain = 0
KRO1 132240Z 06013KT 36/20 A2993 RMK A01 T03560199  RH  040%=      5-min Rain = 0
KRO1 132241Z 06010KT 36/20 A2993 RMK A01 T03560199  RH  040%=      5-min Rain = 0
KRO1 132242Z 06008KT 36/20 A2993 RMK A01 T03550200  RH  040%=      5-min Rain = 0
KRO1 132243Z 05009KT 36/20 A2993 RMK A01 T03560201  RH  041%=      5-min Rain = 0
KRO1 132244Z 03013KT 36/20 A2993 RMK A01 T03570201  RH  040%=      5-min Rain = 0
KRO1 132245Z 05013KT 36/20 A2993 RMK A01 T03570200  RH  040%=      5-min Rain = 0
KRO1 132246Z 04010G15KT 36/20 A2993 RMK A01 T03570201  RH  040%=      5-min Rain = 0
KRO1 132247Z 04009KT 36/20 A2993 RMK A01 T03570204  RH  041%=      5-min Rain = 0
KRO1 132248Z 04012KT 36/20 A2993 RMK A01 T03570201  RH  040%=      5-min Rain = 0
KRO1 132249Z 05013KT 36/21 A2993 RMK A01 T03580205  RH  041%=      5-min Rain = 0
KRO1 132250Z 06011KT 36/21 A2993 RMK A01 T03580206  RH  041%=      5-min Rain = 0
KRO1 132251Z 06012KT 36/21 A2993 RMK A01 T03590205  RH  041%=      5-min Rain = 0
KRO1 132252Z 07013KT 36/20 A2993 RMK A01 T03590202  RH  040%=      5-min Rain = 0
KRO1 132253Z 06013KT 36/20 A2993 RMK A01 T03580200  RH  040%=      5-min Rain = 0
KRO1 132254Z 05010KT 36/20 A2993 RMK A01 T03560200  RH  040%=      5-min Rain = 0
KRO1 132255Z 05011KT 36/20 A2993 RMK A01 T03560203  RH  041%=      5-min Rain = 0
KRO1 132256Z 06014KT 36/20 A2993 RMK A01 T03550203  RH  041%=      5-min Rain = 0
KRO1 132257Z 05014KT 36/20 A2993 RMK A01 T03550202  RH  041%=      5-min Rain = 0
KRO1 132258Z 05010KT 36/20 A2993 RMK A01 T03550202  RH  041%=      5-min Rain = 0
KRO1 132259Z 05009G14KT 35/20 A2993 RMK A01 T03540201  RH  041%=      5-min Rain = 0
KRO1 132300Z 05010KT 35/20 A2993 RMK A01 T03540200  RH  040%=      5-min Rain = 0
KRO1 132301Z 05011KT 35/20 A2993 RMK A01 T03540201  RH  041%=      5-min Rain = 0
KRO1 132302Z 05010KT 35/20 A2993 RMK A01 T03540204  RH  042%=      5-min Rain = 0
KRO1 132303Z 04012KT 36/21 A2993 RMK A01 T03550205  RH  042%=      5-min Rain = 0
KRO1 132304Z 05011KT 36/21 A2993 RMK A01 T03560205  RH  041%=      5-min Rain = 0
KRO1 132305Z 06010KT 36/20 A2993 RMK A01 T03560203  RH  041%=      5-min Rain = 0
KRO1 132306Z 05010KT 36/21 A2993 RMK A01 T03560205  RH  042%=      5-min Rain = 0
KRO1 132307Z 06012KT 35/20 A2993 RMK A01 T03540202  RH  041%=      5-min Rain = 0
KRO1 132308Z 06010KT 35/20 A2993 RMK A01 T03520199  RH  041%=      5-min Rain = 0
KRO1 132309Z 04011KT 35/20 A2993 RMK A01 T03510200  RH  041%=      5-min Rain = 0
KRO1 132310Z 04013G18KT 35/20 A2993 RMK A01 T03510202  RH  042%=      5-min Rain = 0
KRO1 132311Z 05012KT 35/20 A2993 RMK A01 T03510202  RH  042%=      5-min Rain = 0
KRO1 132312Z 05011KT 35/20 A2993 RMK A01 T03510203  RH  042%=      5-min Rain = 0
KRO1 132313Z 05010KT 35/20 A2993 RMK A01 T03510202  RH  042%=      5-min Rain = 0
KRO1 132314Z 05009KT 35/21 A2993 RMK A01 T03510205  RH  043%=      5-min Rain = 0
KRO1 132315Z 05009KT 35/21 A2993 RMK A01 T03510206  RH  043%=      5-min Rain = 0
KRO1 132316Z 04009KT 35/21 A2993 RMK A01 T03530206  RH  043%=      5-min Rain = 0
KRO1 132317Z 05013KT 35/20 A2993 RMK A01 T03540204  RH  042%=      5-min Rain = 0
KRO1 132318Z 06012KT 35/20 A2993 RMK A01 T03540204  RH  042%=      5-min Rain = 0
KRO1 132319Z 06010KT 35/21 A2993 RMK A01 T03530205  RH  042%=      5-min Rain = 0
KRO1 132320Z 04011KT 35/21 A2993 RMK A01 T03530206  RH  042%=      5-min Rain = 0
KRO1 132321Z 03013KT 35/20 A2993 RMK A01 T03530203  RH  042%=      5-min Rain = 0
KRO1 132322Z 03013KT 35/20 A2993 RMK A01 T03520201  RH  041%=      5-min Rain = 0
KRO1 132323Z 03011KT 35/20 A2993 RMK A01 T03510201  RH  041%=      5-min Rain = 0
KRO1 132324Z 04013KT 35/20 A2993 RMK A01 T03500202  RH  042%=      5-min Rain = 0
KRO1 132325Z 06012KT 35/20 A2993 RMK A01 T03500203  RH  042%=      5-min Rain = 0
KRO1 132326Z 06008KT 35/20 A2993 RMK A01 T03500203  RH  042%=      5-min Rain = 0
KRO1 132327Z 06011KT 35/20 A2993 RMK A01 T03500204  RH  042%=      5-min Rain = 0
KRO1 132328Z 08010KT 35/20 A2993 RMK A01 T03510199  RH  041%=      5-min Rain = 0
KRO1 132329Z 07010KT 35/20 A2993 RMK A01 T03510200  RH  041%=      5-min Rain = 0
KRO1 132330Z 06007KT 35/21 A2993 RMK A01 T03510205  RH  043%=      5-min Rain = 0
KRO1 132331Z 05009KT 35/21 A2993 RMK A01 T03520205  RH  042%=      5-min Rain = 0
KRO1 132332Z 06011KT 35/20 A2993 RMK A01 T03520203  RH  042%=      5-min Rain = 0
KRO1 132333Z 06010KT 35/20 A2993 RMK A01 T03520202  RH  042%=      5-min Rain = 0
KRO1 132334Z 05009KT 35/20 A2993 RMK A01 T03510201  RH  042%=      5-min Rain = 0
KRO1 132335Z 05007KT 35/20 A2993 RMK A01 T03510203  RH  042%=      5-min Rain = 0
KRO1 132336Z 06006KT 35/20 A2993 RMK A01 T03510203  RH  042%=      5-min Rain = 0
KRO1 132337Z 05010G15KT 35/21 A2993 RMK A01 T03510205  RH  043%=      5-min Rain = 0
KRO1 132338Z 06013KT 35/20 A2993 RMK A01 T03510202  RH  042%=      5-min Rain = 0
KRO1 132339Z 06012KT 35/20 A2993 RMK A01 T03500200  RH  041%=      5-min Rain = 0
KRO1 132340Z 06011KT 35/20 A2994 RMK A01 T03490200  RH  042%=      5-min Rain = 0
KRO1 132341Z 06009KT 35/20 A2994 RMK A01 T03490202  RH  042%=      5-min Rain = 0
KRO1 132342Z 07009KT 35/20 A2994 RMK A01 T03490200  RH  042%=      5-min Rain = 0
KRO1 132343Z 06010KT 35/20 A2994 RMK A01 T03490202  RH  042%=      5-min Rain = 0
KRO1 132344Z 06010KT 35/20 A2994 RMK A01 T03490202  RH  042%=      5-min Rain = 0
KRO1 132345Z 07010KT 35/20 A2994 RMK A01 T03500203  RH  042%=      5-min Rain = 0
KRO1 132346Z 07008KT 35/20 A2994 RMK A01 T03500200  RH  042%=      5-min Rain = 0
KRO1 132347Z 06008G15KT 35/20 A2994 RMK A01 T03500202  RH  042%=      5-min Rain = 0
KRO1 132348Z 04011KT 35/20 A2994 RMK A01 T03500204  RH  043%=      5-min Rain = 0
KRO1 132349Z 03011KT 35/20 A2994 RMK A01 T03500202  RH  042%=      5-min Rain = 0
KRO1 132350Z 04010KT 35/20 A2994 RMK A01 T03490201  RH  042%=      5-min Rain = 0
KRO1 132351Z 04009KT 35/20 A2994 RMK A01 T03490201  RH  042%=      5-min Rain = 0
KRO1 132352Z 04011KT 35/20 A2994 RMK A01 T03480202  RH  043%=      5-min Rain = 0
KRO1 132353Z 05011KT 35/20 A2994 RMK A01 T03480201  RH  042%=      5-min Rain = 0
KRO1 132354Z 04011KT 35/20 A2994 RMK A01 T03480200  RH  042%=      5-min Rain = 0
KRO1 132355Z 04010KT 35/20 A2994 RMK A01 T03480202  RH  042%=      5-min Rain = 0
KRO1 132356Z 03008KT 35/20 A2994 RMK A01 T03480202  RH  043%=      5-min Rain = 0
KRO1 132357Z 04010KT 35/20 A2994 RMK A01 T03480202  RH  042%=      5-min Rain = 0
KRO1 132358Z 04011KT 35/20 A2994 RMK A01 T03480201  RH  042%=      5-min Rain = 0
KRO1 132359Z 04011KT 35/20 A2994 RMK A01 T03480202  RH  043%=      5-min Rain = 0
KRO1 140000Z 04011KT 35/20 A2994 RMK A01 T03470200  RH  042%=      5-min Rain = 0
KRO1 140001Z 04009KT 35/20 A2994 RMK A01 T03470200  RH  042%=      5-min Rain = 0
KRO1 140002Z 04009KT 35/20 A2994 RMK A01 T03470201  RH  043%=      5-min Rain = 0
KRO1 140003Z 03010KT 35/20 A2994 RMK A01 T03470201  RH  042%=      5-min Rain = 0
KRO1 140004Z 03009KT 35/20 A2994 RMK A01 T03470199  RH  042%=      5-min Rain = 0
KRO1 140005Z 04009KT 35/20 A2994 RMK A01 T03470201  RH  042%=      5-min Rain = 0
KRO1 140006Z 05008KT 35/20 A2994 RMK A01 T03470201  RH  043%=      5-min Rain = 0
KRO1 140007Z 04010KT 35/20 A2994 RMK A01 T03470202  RH  043%=      5-min Rain = 0
KRO1 140008Z 05013KT 35/20 A2994 RMK A01 T03470200  RH  042%=      5-min Rain = 0
KRO1 140009Z 04011KT 35/20 A2994 RMK A01 T03470199  RH  042%=      5-min Rain = 0
KRO1 140010Z 04010KT 35/20 A2994 RMK A01 T03460199  RH  042%=      5-min Rain = 0
KRO1 140011Z 05011KT 35/20 A2994 RMK A01 T03460201  RH  043%=      5-min Rain = 0
KRO1 140012Z 06012KT 35/20 A2994 RMK A01 T03460201  RH  043%=      5-min Rain = 0
KRO1 140013Z 06011KT 35/20 A2994 RMK A01 T03450200  RH  043%=      5-min Rain = 0
KRO1 140014Z 06010KT 35/20 A2994 RMK A01 T03450200  RH  043%=      5-min Rain = 0
KRO1 140015Z 06010KT 35/20 A2994 RMK A01 T03450200  RH  043%=      5-min Rain = 0
KRO1 140016Z 06012KT 34/20 A2994 RMK A01 T03440200  RH  043%=      5-min Rain = 0
KRO1 140017Z 05010KT 34/20 A2994 RMK A01 T03440201  RH  043%=      5-min Rain = 0
KRO1 140018Z 05011KT 34/20 A2994 RMK A01 T03440201  RH  043%=      5-min Rain = 0
KRO1 140019Z 05010KT 34/20 A2994 RMK A01 T03440201  RH  043%=      5-min Rain = 0
KRO1 140020Z 05011KT 34/20 A2994 RMK A01 T03440200  RH  043%=      5-min Rain = 0
KRO1 140021Z 05012KT 34/20 A2994 RMK A01 T03430200  RH  043%=      5-min Rain = 0
KRO1 140022Z 06009KT 34/20 A2994 RMK A01 T03440201  RH  043%=      5-min Rain = 0
KRO1 140023Z 06011KT 34/20 A2994 RMK A01 T03440202  RH  043%=      5-min Rain = 0
KRO1 140024Z 06011KT 34/20 A2994 RMK A01 T03430202  RH  044%=      5-min Rain = 0
KRO1 140025Z 06012KT 34/20 A2994 RMK A01 T03430201  RH  044%=      5-min Rain = 0
KRO1 140026Z 06013KT 34/20 A2994 RMK A01 T03420200  RH  043%=      5-min Rain = 0
KRO1 140027Z 06014KT 34/20 A2994 RMK A01 T03420200  RH  043%=      5-min Rain = 0
KRO1 140028Z 05012KT 34/20 A2994 RMK A01 T03420200  RH  043%=      5-min Rain = 0
KRO1 140029Z 05012KT 34/20 A2994 RMK A01 T03420199  RH  043%=      5-min Rain = 0
KRO1 140030Z 06011KT 34/20 A2995 RMK A01 T03410199  RH  043%=      5-min Rain = 0
KRO1 140031Z 06012KT 34/20 A2995 RMK A01 T03410201  RH  044%=      5-min Rain = 0
KRO1 140032Z 06010KT 34/20 A2995 RMK A01 T03410201  RH  044%=      5-min Rain = 0
KRO1 140033Z 05012KT 34/20 A2995 RMK A01 T03410201  RH  044%=      5-min Rain = 0
KRO1 140034Z 05012KT 34/20 A2995 RMK A01 T03400198  RH  043%=      5-min Rain = 0
KRO1 140035Z 06010KT 34/20 A2995 RMK A01 T03400200  RH  044%=      5-min Rain = 0
KRO1 140036Z 06009KT 34/20 A2995 RMK A01 T03410201  RH  044%=      5-min Rain = 0
KRO1 140037Z 05010KT 34/20 A2995 RMK A01 T03400201  RH  044%=      5-min Rain = 0
KRO1 140038Z 05011KT 34/20 A2995 RMK A01 T03400201  RH  044%=      5-min Rain = 0
KRO1 140039Z 05013KT 34/20 A2995 RMK A01 T03400199  RH  044%=      5-min Rain = 0
KRO1 140040Z 06012KT 34/20 A2995 RMK A01 T03400199  RH  044%=      5-min Rain = 0
KRO1 140041Z 06013KT 34/20 A2995 RMK A01 T03400199  RH  044%=      5-min Rain = 0
KRO1 140042Z 06012KT 34/20 A2995 RMK A01 T03390199  RH  044%=      5-min Rain = 0
KRO1 140043Z 06013KT 34/20 A2995 RMK A01 T03390199  RH  044%=      5-min Rain = 0
KRO1 140044Z 06012KT 34/20 A2995 RMK A01 T03390200  RH  044%=      5-min Rain = 0
KRO1 140045Z 07013KT 34/20 A2995 RMK A01 T03390198  RH  044%=      5-min Rain = 0
KRO1 140046Z 06012KT 34/20 A2995 RMK A01 T03380198  RH  044%=      5-min Rain = 0
KRO1 140047Z 06012KT 34/20 A2995 RMK A01 T03390198  RH  044%=      5-min Rain = 0
KRO1 140048Z 06011KT 34/20 A2995 RMK A01 T03380198  RH  044%=      5-min Rain = 0
KRO1 140049Z 07012KT 34/20 A2995 RMK A01 T03380199  RH  044%=      5-min Rain = 0
KRO1 140050Z 07011KT 34/20 A2995 RMK A01 T03380198  RH  044%=      5-min Rain = 0
KRO1 140051Z 06008KT 34/20 A2995 RMK A01 T03380200  RH  044%=      5-min Rain = 0
KRO1 140052Z 06011KT 34/20 A2995 RMK A01 T03370199  RH  044%=      5-min Rain = 0
KRO1 140053Z 06011KT 34/20 A2995 RMK A01 T03370198  RH  044%=      5-min Rain = 0
KRO1 140054Z 06010KT 34/20 A2995 RMK A01 T03370199  RH  044%=      5-min Rain = 0
KRO1 140055Z 06008KT 34/20 A2995 RMK A01 T03360200  RH  045%=      5-min Rain = 0
KRO1 140056Z 05011KT 34/20 A2995 RMK A01 T03350200  RH  045%=      5-min Rain = 0
KRO1 140057Z 05010KT 34/20 A2995 RMK A01 T03350199  RH  045%=      5-min Rain = 0
KRO1 140058Z 06011KT 34/20 A2995 RMK A01 T03350199  RH  045%=      5-min Rain = 0
KRO1 140059Z 06010KT 34/20 A2995 RMK A01 T03350199  RH  045%=      5-min Rain = 0
KRO1 140100Z 05011KT 34/20 A2995 RMK A01 T03350199  RH  045%=      5-min Rain = 0
KRO1 140101Z 05011KT 34/20 A2995 RMK A01 T03350198  RH  045%=      5-min Rain = 0
KRO1 140102Z 05011KT 34/20 A2995 RMK A01 T03350198  RH  045%=      5-min Rain = 0
KRO1 140103Z 05011KT 34/20 A2995 RMK A01 T03350198  RH  045%=      5-min Rain = 0
KRO1 140104Z 05011KT 34/20 A2995 RMK A01 T03350197  RH  044%=      5-min Rain = 0
KRO1 140105Z 05010KT 34/20 A2995 RMK A01 T03350198  RH  045%=      5-min Rain = 0
KRO1 140106Z 05009KT 33/20 A2995 RMK A01 T03340198  RH  045%=      5-min Rain = 0
KRO1 140107Z 05009KT 33/20 A2995 RMK A01 T03340198  RH  045%=      5-min Rain = 0
KRO1 140108Z 05011KT 33/20 A2995 RMK A01 T03340198  RH  045%=      5-min Rain = 0
KRO1 140109Z 05010KT 33/20 A2995 RMK A01 T03340197  RH  045%=      5-min Rain = 0
KRO1 140110Z 05010KT 33/20 A2995 RMK A01 T03340198  RH  045%=      5-min Rain = 0
KRO1 140111Z 05009KT 33/20 A2995 RMK A01 T03340198  RH  045%=      5-min Rain = 0
KRO1 140112Z 05009KT 33/20 A2995 RMK A01 T03330198  RH  045%=      5-min Rain = 0
KRO1 140113Z 05010KT 33/20 A2995 RMK A01 T03330198  RH  045%=      5-min Rain = 0
KRO1 140114Z 05010KT 33/20 A2995 RMK A01 T03330197  RH  045%=      5-min Rain = 0
KRO1 140115Z 05008KT 33/20 A2995 RMK A01 T03330197  RH  045%=      5-min Rain = 0
KRO1 140116Z 05009KT 33/20 A2996 RMK A01 T03330198  RH  045%=      5-min Rain = 0
KRO1 140117Z 04010KT 33/20 A2996 RMK A01 T03320198  RH  045%=      5-min Rain = 0
KRO1 140118Z 05010KT 33/20 A2996 RMK A01 T03320198  RH  045%=      5-min Rain = 0
KRO1 140119Z 04010KT 33/20 A2996 RMK A01 T03320197  RH  045%=      5-min Rain = 0
KRO1 140120Z 04011KT 33/20 A2996 RMK A01 T03320197  RH  045%=      5-min Rain = 0
KRO1 140121Z 05009KT 33/20 A2996 RMK A01 T03320197  RH  045%=      5-min Rain = 0
KRO1 140122Z 04009KT 33/20 A2996 RMK A01 T03320198  RH  045%=      5-min Rain = 0
KRO1 140123Z 04010KT 33/20 A2995 RMK A01 T03310198  RH  045%=      5-min Rain = 0
KRO1 140124Z 04010KT 33/20 A2995 RMK A01 T03310197  RH  045%=      5-min Rain = 0
KRO1 140125Z 05009KT 33/20 A2995 RMK A01 T03310197  RH  045%=      5-min Rain = 0
KRO1 140126Z 05010KT 33/20 A2995 RMK A01 T03310197  RH  045%=      5-min Rain = 0
KRO1 140127Z 05011KT 33/20 A2995 RMK A01 T03310197  RH  045%=      5-min Rain = 0
KRO1 140128Z 05009KT 33/20 A2995 RMK A01 T03310197  RH  045%=      5-min Rain = 0
KRO1 140129Z 05009KT 33/20 A2996 RMK A01 T03310198  RH  046%=      5-min Rain = 0
KRO1 140130Z 05009KT 33/20 A2996 RMK A01 T03300198  RH  046%=      5-min Rain = 0
KRO1 140131Z 05008KT 33/20 A2996 RMK A01 T03300198  RH  046%=      5-min Rain = 0
KRO1 140132Z 04008KT 33/20 A2996 RMK A01 T03290198  RH  046%=      5-min Rain = 0
KRO1 140133Z 04008KT 33/20 A2996 RMK A01 T03290198  RH  046%=      5-min Rain = 0
KRO1 140134Z 05011KT 33/20 A2996 RMK A01 T03280198  RH  046%=      5-min Rain = 0
KRO1 140135Z 04009KT 33/20 A2996 RMK A01 T03280197  RH  046%=      5-min Rain = 0
KRO1 140136Z 05009KT 33/20 A2996 RMK A01 T03290197  RH  046%=      5-min Rain = 0
KRO1 140137Z 05009KT 33/20 A2996 RMK A01 T03290197  RH  046%=      5-min Rain = 0
KRO1 140138Z 05009KT 33/20 A2996 RMK A01 T03300197  RH  046%=      5-min Rain = 0
KRO1 140139Z 05009KT 33/20 A2996 RMK A01 T03290197  RH  046%=      5-min Rain = 0
KRO1 140140Z 05007KT 33/20 A2996 RMK A01 T03290197  RH  046%=      5-min Rain = 0
KRO1 140141Z 05007KT 33/20 A2996 RMK A01 T03290197  RH  046%=      5-min Rain = 0
KRO1 140142Z 04008KT 33/20 A2996 RMK A01 T03280197  RH  046%=      5-min Rain = 0
KRO1 140143Z 04009KT 33/20 A2996 RMK A01 T03280197  RH  046%=      5-min Rain = 0
KRO1 140144Z 04010KT 33/20 A2996 RMK A01 T03280197  RH  046%=      5-min Rain = 0
KRO1 140145Z 05009KT 33/20 A2996 RMK A01 T03280197  RH  046%=      5-min Rain = 0
KRO1 140146Z 05008KT 33/20 A2996 RMK A01 T03280197  RH  046%=      5-min Rain = 0
KRO1 140147Z 05007KT 33/20 A2996 RMK A01 T03280197  RH  046%=      5-min Rain = 0
KRO1 140148Z 05007KT 33/20 A2996 RMK A01 T03270198  RH  046%=      5-min Rain = 0
KRO1 140149Z 05008KT 33/20 A2996 RMK A01 T03270198  RH  047%=      5-min Rain = 0
KRO1 140150Z 04008KT 33/20 A2996 RMK A01 T03270198  RH  047%=      5-min Rain = 0
KRO1 140151Z 04008KT 33/20 A2996 RMK A01 T03260198  RH  047%=      5-min Rain = 0
KRO1 140152Z 04008KT 33/20 A2996 RMK A01 T03250199  RH  047%=      5-min Rain = 0
KRO1 140153Z 04008KT 33/20 A2996 RMK A01 T03250199  RH  047%=      5-min Rain = 0
KRO1 140154Z 04007KT 33/20 A2996 RMK A01 T03250199  RH  047%=      5-min Rain = 0
KRO1 140155Z 04007KT 33/20 A2996 RMK A01 T03250199  RH  047%=      5-min Rain = 0
KRO1 140156Z 04007KT 33/20 A2996 RMK A01 T03250199  RH  047%=      5-min Rain = 0
KRO1 140157Z 04007KT 33/20 A2996 RMK A01 T03250199  RH  048%=      5-min Rain = 0
KRO1 140158Z 04007KT 32/20 A2996 RMK A01 T03240199  RH  048%=      5-min Rain = 0
KRO1 140159Z 03007KT 32/20 A2997 RMK A01 T03240199  RH  048%=      5-min Rain = 0
KRO1 140200Z 03007KT 32/20 A2997 RMK A01 T03240199  RH  048%=      5-min Rain = 0
KRO1 140201Z 03007KT 32/20 A2997 RMK A01 T03240199  RH  048%=      5-min Rain = 0
KRO1 140202Z 03007KT 32/20 A2997 RMK A01 T03240198  RH  048%=      5-min Rain = 0
KRO1 140203Z 03007KT 32/20 A2997 RMK A01 T03240198  RH  048%=      5-min Rain = 0
KRO1 140204Z 03007KT 32/20 A2997 RMK A01 T03240198  RH  048%=      5-min Rain = 0
KRO1 140205Z 03006KT 32/20 A2997 RMK A01 T03230199  RH  048%=      5-min Rain = 0
KRO1 140206Z 03007KT 32/20 A2997 RMK A01 T03230199  RH  048%=      5-min Rain = 0
KRO1 140207Z 03007KT 32/20 A2997 RMK A01 T03230199  RH  048%=      5-min Rain = 0
KRO1 140208Z 03007KT 32/20 A2998 RMK A01 T03230199  RH  048%=      5-min Rain = 0
KRO1 140209Z 03007KT 32/20 A2998 RMK A01 T03230199  RH  048%=      5-min Rain = 0
KRO1 140210Z 03008KT 32/20 A2998 RMK A01 T03230199  RH  048%=      5-min Rain = 0
KRO1 140211Z 03007KT 32/20 A2998 RMK A01 T03230199  RH  048%=      5-min Rain = 0
KRO1 140212Z 03008KT 32/20 A2998 RMK A01 T03230199  RH  048%=      5-min Rain = 0
KRO1 140213Z 03008KT 32/20 A2998 RMK A01 T03230199  RH  048%=      5-min Rain = 0
KRO1 140214Z 02007KT 32/20 A2998 RMK A01 T03230198  RH  048%=      5-min Rain = 0
KRO1 140215Z 02007KT 32/20 A2998 RMK A01 T03230198  RH  048%=      5-min Rain = 0
KRO1 140216Z 02007KT 32/20 A2998 RMK A01 T03220198  RH  048%=      5-min Rain = 0
KRO1 140217Z 02007KT 32/20 A2998 RMK A01 T03220198  RH  048%=      5-min Rain = 0
KRO1 140218Z 03008KT 32/20 A2998 RMK A01 T03220198  RH  048%=      5-min Rain = 0
KRO1 140219Z 03008KT 32/20 A2998 RMK A01 T03220198  RH  048%=      5-min Rain = 0
KRO1 140220Z 03007KT 32/20 A2998 RMK A01 T03210198  RH  048%=      5-min Rain = 0
KRO1 140221Z 03007KT 32/20 A2998 RMK A01 T03210198  RH  048%=      5-min Rain = 0
KRO1 140222Z 03009KT 32/20 A2998 RMK A01 T03210198  RH  048%=      5-min Rain = 0
KRO1 140223Z 03008KT 32/20 A2998 RMK A01 T03210197  RH  048%=      5-min Rain = 0
KRO1 140224Z 03007KT 32/20 A2999 RMK A01 T03200197  RH  048%=      5-min Rain = 0
KRO1 140225Z 03008KT 32/20 A2999 RMK A01 T03200197  RH  048%=      5-min Rain = 0
KRO1 140226Z 03008KT 32/20 A2999 RMK A01 T03200197  RH  048%=      5-min Rain = 0
KRO1 140227Z 03008KT 32/20 A2999 RMK A01 T03200197  RH  048%=      5-min Rain = 0
KRO1 140228Z 03009KT 32/20 A2999 RMK A01 T03200197  RH  048%=      5-min Rain = 0
KRO1 140229Z 03008KT 32/20 A2999 RMK A01 T03200197  RH  048%=      5-min Rain = 0
KRO1 140230Z 03009KT 32/20 A2999 RMK A01 T03200197  RH  048%=      5-min Rain = 0
KRO1 140231Z 03010KT 32/20 A2999 RMK A01 T03200197  RH  048%=      5-min Rain = 0
KRO1 140232Z 03011KT 32/20 A2999 RMK A01 T03200197  RH  048%=      5-min Rain = 0
KRO1 140233Z 03013KT 32/20 A2999 RMK A01 T03200197  RH  048%=      5-min Rain = 0
KRO1 140234Z 04013KT 32/20 A2999 RMK A01 T03210198  RH  048%=      5-min Rain = 0
KRO1 140235Z 03014KT 32/20 A2999 RMK A01 T03210199  RH  049%=      5-min Rain = 0
KRO1 140236Z 03013KT 32/20 A2999 RMK A01 T03210199  RH  049%=      5-min Rain = 0
KRO1 140237Z 04012KT 32/20 A2999 RMK A01 T03210200  RH  049%=      5-min Rain = 0
KRO1 140238Z 04012KT 32/20 A2999 RMK A01 T03210200  RH  049%=      5-min Rain = 0
KRO1 140239Z 04013KT 32/20 A30 RMK A01 T03200201  RH  049%=      5-min Rain = 0
KRO1 140240Z 04012KT 32/20 A30 RMK A01 T03200201  RH  049%=      5-min Rain = 0
KRO1 140241Z 03012KT 32/20 A30 RMK A01 T03190201  RH  050%=      5-min Rain = 0
KRO1 140242Z 04012KT 32/20 A30 RMK A01 T03190201  RH  050%=      5-min Rain = 0
KRO1 140243Z 03010KT 32/20 A30 RMK A01 T03190201  RH  050%=      5-min Rain = 0
KRO1 140244Z 04013KT 32/20 A30 RMK A01 T03180202  RH  050%=      5-min Rain = 0
KRO1 140245Z 04017KT 32/20 A30 RMK A01 T03180203  RH  051%=      5-min Rain = 0
KRO1 140246Z 04016KT 32/20 A30 RMK A01 T03180203  RH  051%=      5-min Rain = 0
KRO1 140247Z 04014KT 32/20 A30 RMK A01 T03180203  RH  051%=      5-min Rain = 0
KRO1 140248Z 04012KT 32/20 A30 RMK A01 T03180203  RH  051%=      5-min Rain = 0
KRO1 140249Z 04012KT 32/20 A30 RMK A01 T03170204  RH  051%=      5-min Rain = 0
KRO1 140250Z 04012KT 32/20 A30 RMK A01 T03170204  RH  051%=      5-min Rain = 0
KRO1 140251Z 04013KT 32/20 A30 RMK A01 T03170204  RH  051%=      5-min Rain = 0
KRO1 140252Z 03016KT 32/21 A30 RMK A01 T03160205  RH  052%=      5-min Rain = 0
KRO1 140253Z 04015KT 32/21 A30 RMK A01 T03160205  RH  052%=      5-min Rain = 0
KRO1 140254Z 04015KT 32/21 A30 RMK A01 T03160205  RH  052%=      5-min Rain = 0
KRO1 140255Z 04014KT 32/21 A30 RMK A01 T03160205  RH  052%=      5-min Rain = 0
KRO1 140256Z 04011KT 32/21 A30 RMK A01 T03160205  RH  052%=      5-min Rain = 0
KRO1 140257Z 03011KT 32/21 A30 RMK A01 T03150205  RH  052%=      5-min Rain = 0
KRO1 140258Z 03012KT 32/21 A30 RMK A01 T03150205  RH  052%=      5-min Rain = 0
KRO1 140259Z 04013KT 32/21 A30 RMK A01 T03150205  RH  052%=      5-min Rain = 0
KRO1 140300Z 04013KT 32/21 A30 RMK A01 T03150206  RH  052%=      5-min Rain = 0
KRO1 140301Z 03011KT 32/21 A3001 RMK A01 T03150206  RH  052%=      5-min Rain = 0
KRO1 140302Z 04012KT 31/21 A3001 RMK A01 T03140206  RH  052%=      5-min Rain = 0
KRO1 140303Z 04014KT 31/21 A3001 RMK A01 T03140206  RH  053%=      5-min Rain = 0
KRO1 140304Z 04012KT 31/21 A3001 RMK A01 T03140206  RH  053%=      5-min Rain = 0
KRO1 140305Z 04014KT 31/21 A3001 RMK A01 T03140206  RH  053%=      5-min Rain = 0
KRO1 140306Z 03012KT 31/21 A3001 RMK A01 T03140206  RH  053%=      5-min Rain = 0
KRO1 140307Z 04010KT 31/21 A3001 RMK A01 T03130206  RH  053%=      5-min Rain = 0
KRO1 140308Z 04010KT 31/21 A3001 RMK A01 T03130206  RH  053%=      5-min Rain = 0
KRO1 140309Z 03012KT 31/21 A3001 RMK A01 T03120206  RH  053%=      5-min Rain = 0
KRO1 140310Z 04014KT 31/21 A3001 RMK A01 T03120206  RH  053%=      5-min Rain = 0
KRO1 140311Z 04011KT 31/21 A3001 RMK A01 T03120206  RH  053%=      5-min Rain = 0
KRO1 140312Z 03013KT 31/21 A3001 RMK A01 T03120207  RH  054%=      5-min Rain = 0
KRO1 140313Z 04014KT 31/21 A3001 RMK A01 T03110207  RH  054%=      5-min Rain = 0
KRO1 140314Z 04012KT 31/21 A3001 RMK A01 T03120207  RH  054%=      5-min Rain = 0
KRO1 140315Z 03013KT 31/21 A3001 RMK A01 T03110207  RH  054%=      5-min Rain = 0
KRO1 140316Z 03015KT 31/21 A3001 RMK A01 T03110207  RH  054%=      5-min Rain = 0
KRO1 140317Z 03014KT 31/21 A3001 RMK A01 T03110207  RH  054%=      5-min Rain = 0
KRO1 140318Z 04013KT 31/21 A3001 RMK A01 T03110207  RH  054%=      5-min Rain = 0
KRO1 140319Z 03013KT 31/21 A3001 RMK A01 T03110207  RH  054%=      5-min Rain = 0
KRO1 140320Z 03011KT 31/21 A3001 RMK A01 T03110207  RH  054%=      5-min Rain = 0
KRO1 140321Z 03011KT 31/21 A3002 RMK A01 T03100207  RH  054%=      5-min Rain = 0
KRO1 140322Z 03012KT 31/21 A3002 RMK A01 T03100207  RH  054%=      5-min Rain = 0
KRO1 140323Z 03012KT 31/21 A3002 RMK A01 T03090206  RH  054%=      5-min Rain = 0
KRO1 140324Z 04013KT 31/21 A3002 RMK A01 T03090207  RH  054%=      5-min Rain = 0
KRO1 140325Z 03013KT 31/21 A3002 RMK A01 T03090207  RH  054%=      5-min Rain = 0
KRO1 140326Z 04010KT 31/21 A3002 RMK A01 T03090207  RH  054%=      5-min Rain = 0
KRO1 140327Z 04009KT 31/21 A3002 RMK A01 T03090207  RH  054%=      5-min Rain = 0
KRO1 140328Z 03012KT 31/21 A3002 RMK A01 T03080207  RH  055%=      5-min Rain = 0
KRO1 140329Z 04012KT 31/21 A3002 RMK A01 T03080207  RH  055%=      5-min Rain = 0
KRO1 140330Z 04014KT 31/21 A3002 RMK A01 T03080207  RH  055%=      5-min Rain = 0
KRO1 140331Z 04013KT 31/21 A3002 RMK A01 T03080206  RH  055%=      5-min Rain = 0
KRO1 140332Z 04011KT 31/21 A3002 RMK A01 T03080207  RH  055%=      5-min Rain = 0
KRO1 140333Z 04014KT 31/21 A3002 RMK A01 T03080207  RH  055%=      5-min Rain = 0
KRO1 140334Z 03014KT 31/21 A3002 RMK A01 T03080207  RH  055%=      5-min Rain = 0
KRO1 140335Z 03014KT 31/21 A3002 RMK A01 T03080207  RH  055%=      5-min Rain = 0
KRO1 140336Z 04014KT 31/21 A3002 RMK A01 T03080206  RH  055%=      5-min Rain = 0
KRO1 140337Z 04014KT 31/21 A3002 RMK A01 T03080206  RH  055%=      5-min Rain = 0
KRO1 140338Z 03013KT 31/21 A3003 RMK A01 T03080207  RH  055%=      5-min Rain = 0
KRO1 140339Z 04012KT 31/21 A3003 RMK A01 T03080207  RH  055%=      5-min Rain = 0
KRO1 140340Z 04012G17KT 31/21 A3003 RMK A01 T03070206  RH  055%=      5-min Rain = 0
KRO1 140341Z 04014KT 31/21 A3003 RMK A01 T03070207  RH  055%=      5-min Rain = 0
KRO1 140342Z 04013KT 31/21 A3003 RMK A01 T03070206  RH  055%=      5-min Rain = 0
KRO1 140343Z 04012KT 31/21 A3003 RMK A01 T03070206  RH  055%=      5-min Rain = 0
KRO1 140344Z 04012KT 31/21 A3003 RMK A01 T03070206  RH  055%=      5-min Rain = 0
KRO1 140345Z 04012KT 31/21 A3003 RMK A01 T03060206  RH  055%=      5-min Rain = 0
KRO1 140346Z 04012KT 31/21 A3003 RMK A01 T03060206  RH  055%=      5-min Rain = 0
KRO1 140347Z 04012KT 31/21 A3003 RMK A01 T03060207  RH  055%=      5-min Rain = 0
KRO1 140348Z 04011KT 31/21 A3003 RMK A01 T03060206  RH  055%=      5-min Rain = 0
KRO1 140349Z 04009KT 31/21 A3003 RMK A01 T03060206  RH  055%=      5-min Rain = 0
KRO1 140350Z 03011KT 31/21 A3003 RMK A01 T03050206  RH  055%=      5-min Rain = 0
KRO1 140351Z 04011KT 31/21 A3003 RMK A01 T03050206  RH  056%=      5-min Rain = 0
KRO1 140352Z 04012KT 31/21 A3003 RMK A01 T03050206  RH  056%=      5-min Rain = 0
KRO1 140353Z 03011KT 31/21 A3003 RMK A01 T03050206  RH  056%=      5-min Rain = 0
KRO1 140354Z 03013KT 31/21 A3003 RMK A01 T03050206  RH  056%=      5-min Rain = 0
KRO1 140355Z 04012KT 31/21 A3003 RMK A01 T03050206  RH  056%=      5-min Rain = 0
KRO1 140356Z 04013KT 31/21 A3003 RMK A01 T03050206  RH  056%=      5-min Rain = 0
KRO1 140357Z 04010G15KT 31/21 A3003 RMK A01 T03050206  RH  056%=      5-min Rain = 0
KRO1 140358Z 04015KT 31/21 A3003 RMK A01 T03050206  RH  056%=      5-min Rain = 0
KRO1 140359Z 04013KT 31/21 A3003 RMK A01 T03050206  RH  056%=      5-min Rain = 0
KRO1 140400Z 03012KT 31/21 A3003 RMK A01 T03050206  RH  056%=      5-min Rain = 0
KRO1 140401Z 04014KT 30/21 A3003 RMK A01 T03040206  RH  056%=      5-min Rain = 0
KRO1 140402Z 04011KT 30/21 A3003 RMK A01 T03040206  RH  056%=      5-min Rain = 0
KRO1 140403Z 04011KT 30/21 A3003 RMK A01 T03040206  RH  056%=      5-min Rain = 0
KRO1 140404Z 04010KT 30/21 A3003 RMK A01 T03040206  RH  056%=      5-min Rain = 0
KRO1 140405Z 04010KT 30/21 A3003 RMK A01 T03030206  RH  056%=      5-min Rain = 0
KRO1 140406Z 04010KT 30/21 A3004 RMK A01 T03030206  RH  056%=      5-min Rain = 0
KRO1 140407Z 04012KT 30/21 A3003 RMK A01 T03030206  RH  056%=      5-min Rain = 0
KRO1 140408Z 04009KT 30/21 A3003 RMK A01 T03020206  RH  056%=      5-min Rain = 0
KRO1 140409Z 04012KT 30/21 A3003 RMK A01 T03020206  RH  056%=      5-min Rain = 0
KRO1 140410Z 04011KT 30/21 A3003 RMK A01 T03020206  RH  056%=      5-min Rain = 0
KRO1 140411Z 05013KT 30/21 A3004 RMK A01 T03020206  RH  056%=      5-min Rain = 0
KRO1 140412Z 04012KT 30/21 A3004 RMK A01 T03020206  RH  056%=      5-min Rain = 0
KRO1 140413Z 04011KT 30/21 A3004 RMK A01 T03020206  RH  056%=      5-min Rain = 0
KRO1 140414Z 04013KT 30/21 A3004 RMK A01 T03020206  RH  056%=      5-min Rain = 0
KRO1 140415Z 05014KT 30/21 A3004 RMK A01 T03020206  RH  056%=      5-min Rain = 0
KRO1 140416Z 04013KT 30/21 A3003 RMK A01 T03020206  RH  056%=      5-min Rain = 0
KRO1 140417Z 04011KT 30/21 A3003 RMK A01 T03020206  RH  056%=      5-min Rain = 0
KRO1 140418Z 05011KT 30/21 A3003 RMK A01 T03020205  RH  056%=      5-min Rain = 0
KRO1 140419Z 04011KT 30/21 A3003 RMK A01 T03020206  RH  056%=      5-min Rain = 0
KRO1 140420Z 04012KT 30/21 A3003 RMK A01 T03020206  RH  056%=      5-min Rain = 0
KRO1 140421Z 05012KT 30/21 A3003 RMK A01 T03020206  RH  056%=      5-min Rain = 0
KRO1 140422Z 05011KT 30/21 A3003 RMK A01 T03020206  RH  056%=      5-min Rain = 0
KRO1 140423Z 05012KT 30/21 A3003 RMK A01 T03010205  RH  057%=      5-min Rain = 0
KRO1 140424Z 04011KT 30/21 A3003 RMK A01 T03010205  RH  057%=      5-min Rain = 0
KRO1 140425Z 05011KT 30/21 A3003 RMK A01 T03010205  RH  057%=      5-min Rain = 0
KRO1 140426Z 05013KT 30/21 A3003 RMK A01 T03010205  RH  057%=      5-min Rain = 0
KRO1 140427Z 04011KT 30/21 A3003 RMK A01 T03010206  RH  057%=      5-min Rain = 0
KRO1 140428Z 05009KT 30/21 A3004 RMK A01 T03000205  RH  057%=      5-min Rain = 0
KRO1 140429Z 04011KT 30/21 A3004 RMK A01 T03000205  RH  057%=      5-min Rain = 0
KRO1 140430Z 04011KT 30/21 A3004 RMK A01 T03000205  RH  057%=      5-min Rain = 0
KRO1 140431Z 05013KT 30/21 A3004 RMK A01 T03000205  RH  057%=      5-min Rain = 0
KRO1 140432Z 05012KT 30/21 A3004 RMK A01 T03000205  RH  057%=      5-min Rain = 0
KRO1 140433Z 04012KT 30/21 A3004 RMK A01 T03000205  RH  057%=      5-min Rain = 0
KRO1 140434Z 04011KT 30/21 A3004 RMK A01 T03000205  RH  057%=      5-min Rain = 0
KRO1 140435Z 04013KT 30/21 A3004 RMK A01 T03000205  RH  057%=      5-min Rain = 0
KRO1 140436Z 04010KT 30/21 A3004 RMK A01 T03000205  RH  057%=      5-min Rain = 0
KRO1 140437Z 04010KT 30/21 A3004 RMK A01 T03000205  RH  057%=      5-min Rain = 0
KRO1 140438Z 04010KT 30/21 A3004 RMK A01 T02990205  RH  057%=      5-min Rain = 0
KRO1 140439Z 04011KT 30/21 A3004 RMK A01 T02990205  RH  057%=      5-min Rain = 0
KRO1 140440Z 04011KT 30/21 A3004 RMK A01 T02990205  RH  057%=      5-min Rain = 0
KRO1 140441Z 04009KT 30/21 A3004 RMK A01 T02990205  RH  057%=      5-min Rain = 0
KRO1 140442Z 05011KT 30/21 A3004 RMK A01 T02980205  RH  057%=      5-min Rain = 0
KRO1 140443Z 05011KT 30/20 A3004 RMK A01 T02980204  RH  057%=      5-min Rain = 0
KRO1 140444Z 05011KT 30/21 A3004 RMK A01 T02980205  RH  057%=      5-min Rain = 0
KRO1 140445Z 05011KT 30/21 A3004 RMK A01 T02980205  RH  057%=      5-min Rain = 0
KRO1 140446Z 05011KT 30/21 A3004 RMK A01 T02980205  RH  057%=      5-min Rain = 0
KRO1 140447Z 05009KT 30/21 A3004 RMK A01 T02980205  RH  057%=      5-min Rain = 0
KRO1 140448Z 05012KT 30/21 A3004 RMK A01 T02980205  RH  057%=      5-min Rain = 0
KRO1 140449Z 05011KT 30/20 A3004 RMK A01 T02980204  RH  057%=      5-min Rain = 0
KRO1 140450Z 05014KT 30/20 A3004 RMK A01 T02980204  RH  057%=      5-min Rain = 0
KRO1 140451Z 05014KT 30/20 A3004 RMK A01 T02990204  RH  057%=      5-min Rain = 0
KRO1 140452Z 05013KT 30/20 A3004 RMK A01 T02980204  RH  057%=      5-min Rain = 0
KRO1 140453Z 05013KT 30/20 A3004 RMK A01 T02980204  RH  057%=      5-min Rain = 0
KRO1 140454Z 05012KT 30/20 A3004 RMK A01 T02980204  RH  057%=      5-min Rain = 0
KRO1 140455Z 05015KT 30/20 A3004 RMK A01 T02990204  RH  057%=      5-min Rain = 0
KRO1 140456Z 05013KT 30/20 A3004 RMK A01 T02990204  RH  057%=      5-min Rain = 0
KRO1 140457Z 05012KT 30/20 A3004 RMK A01 T02980203  RH  057%=      5-min Rain = 0
KRO1 140458Z 05012KT 30/20 A3004 RMK A01 T02980204  RH  057%=      5-min Rain = 0
KRO1 140459Z 05014KT 30/20 A3004 RMK A01 T02980204  RH  057%=      5-min Rain = 0

Page generated in 0.0717 seconds.